<?xml version="1.0" encoding="UTF-8" standalone="no" ?>
<gpx xmlns="http://www.topografix.com/GPX/1/1" xmlns:xsi="http://www.w3.org/2001/XMLSchema-instance" xsi:schemaLocation="http://www.topografix.com/GPX/1/1 http://www.topografix.com/GPX/1/1/gpx.xsd" version="1.1" creator="VisuGPX - https://www.visugpx.com">
  <metadata>
    <name>La guillermie 17 kms 02 10 2011</name>
    <desc><![CDATA[Rando 17 kms




]]></desc>
  </metadata>
  <wpt lat="45.99309" lon="3.62959">
    <ele>771</ele>
    <name><![CDATA[WPT001]]></name>
    <desc><![CDATA[]]></desc>
    <type><![CDATA[Photo]]></type>
  </wpt>
  <wpt lat="45.99567" lon="3.64291">
    <ele>736</ele>
    <name><![CDATA[WPT002]]></name>
    <desc><![CDATA[]]></desc>
    <type><![CDATA[Photo]]></type>
  </wpt>
  <wpt lat="46.01342" lon="3.64853">
    <ele>745</ele>
    <name><![CDATA[WPT003]]></name>
    <desc><![CDATA[]]></desc>
    <type><![CDATA[Photo]]></type>
  </wpt>
  <wpt lat="46.01858" lon="3.64553">
    <ele>706</ele>
    <name><![CDATA[WPT004]]></name>
    <desc><![CDATA[]]></desc>
    <type><![CDATA[Photo]]></type>
  </wpt>
  <wpt lat="46.00085" lon="3.66461">
    <ele>813</ele>
    <name><![CDATA[WPT005]]></name>
    <desc><![CDATA[]]></desc>
    <type><![CDATA[Photo]]></type>
  </wpt>
  <wpt lat="45.99004" lon="3.66225">
    <ele>863</ele>
    <name><![CDATA[WPT006]]></name>
    <desc><![CDATA[]]></desc>
    <type><![CDATA[Photo]]></type>
  </wpt>
  <trk>
    <name><![CDATA[ la guillermie2011-10-02 09:23]]></name>
    <desc><![CDATA[<h1>OruxMaps</h1><br /><hr align="center" width="480" style="height: 2px; width: 517px"/><h2>Nom:  la guillermie2011-10-02 09:23</h2><br /><p>Temps de départ: 10/02/2011 09:23</p><p>Temps d'arrivée: 10/02/2011 14:54</p><p>Distance: 17,6 km (05:30)</p><p>Temps déplacement: 03:24</p><p>Vitesse moyenne: 3,2 km/h</p><p>Vitesse moyenne: 5,2 km/h</p><p>Vitess Max.: 20 km/h</p><p>Altitude minimale: 594 m</p><p>Altitude maximale: 903 m</p><p>Vitesse d'élévation: 227,7 m/h</p><p>Vitesse de descente: -206,5 m/h</p><p>Gain Altitude: 549 m</p><p>Perte Altitude: -545 m</p><p>Temps d'élévation: 02:24</p><p>Temps de descente: 02:38</p><hr align="center" width="480" style="height: 2px; width: 517px"/>]]></desc>
    <trkseg>
      <trkpt lat="45.98331" lon="3.63879">
        <ele>788.155</ele>
        <time>2011-10-02T07:23:43Z</time>
      </trkpt>
      <trkpt lat="45.98328" lon="3.63851">
        <ele>784.75665</ele>
        <time>2011-10-02T07:24:03Z</time>
      </trkpt>
      <trkpt lat="45.98328" lon="3.63823">
        <ele>785.9146</ele>
        <time>2011-10-02T07:24:14Z</time>
      </trkpt>
      <trkpt lat="45.98334" lon="3.63798">
        <ele>786.96564</ele>
        <time>2011-10-02T07:24:26Z</time>
      </trkpt>
      <trkpt lat="45.98332" lon="3.63772">
        <ele>786.99854</ele>
        <time>2011-10-02T07:24:37Z</time>
      </trkpt>
      <trkpt lat="45.98325" lon="3.63746">
        <ele>786.99994</ele>
        <time>2011-10-02T07:24:48Z</time>
      </trkpt>
      <trkpt lat="45.98323" lon="3.6372">
        <ele>787</ele>
        <time>2011-10-02T07:24:59Z</time>
      </trkpt>
      <trkpt lat="45.98335" lon="3.63699">
        <ele>787</ele>
        <time>2011-10-02T07:25:11Z</time>
      </trkpt>
      <trkpt lat="45.98352" lon="3.63708">
        <ele>787.6836</ele>
        <time>2011-10-02T07:26:17Z</time>
      </trkpt>
      <trkpt lat="45.98371" lon="3.63716">
        <ele>789.2141</ele>
        <time>2011-10-02T07:26:32Z</time>
      </trkpt>
      <trkpt lat="45.98389" lon="3.63714">
        <ele>790.39325</ele>
        <time>2011-10-02T07:26:42Z</time>
      </trkpt>
      <trkpt lat="45.98407" lon="3.63714">
        <ele>791.7285</ele>
        <time>2011-10-02T07:26:52Z</time>
      </trkpt>
      <trkpt lat="45.98425" lon="3.63716">
        <ele>794.1595</ele>
        <time>2011-10-02T07:27:09Z</time>
      </trkpt>
      <trkpt lat="45.98442" lon="3.63725">
        <ele>795.87994</ele>
        <time>2011-10-02T07:27:22Z</time>
      </trkpt>
      <trkpt lat="45.98461" lon="3.63729">
        <ele>797.4037</ele>
        <time>2011-10-02T07:27:36Z</time>
      </trkpt>
      <trkpt lat="45.98479" lon="3.63727">
        <ele>798.9894</ele>
        <time>2011-10-02T07:28:00Z</time>
      </trkpt>
      <trkpt lat="45.98496" lon="3.63718">
        <ele>800.5602</ele>
        <time>2011-10-02T07:28:16Z</time>
      </trkpt>
      <trkpt lat="45.98513" lon="3.6371">
        <ele>801.892</ele>
        <time>2011-10-02T07:28:30Z</time>
      </trkpt>
      <trkpt lat="45.98531" lon="3.63705">
        <ele>803.8554</ele>
        <time>2011-10-02T07:28:46Z</time>
      </trkpt>
      <trkpt lat="45.98549" lon="3.63695">
        <ele>806.6835</ele>
        <time>2011-10-02T07:29:28Z</time>
      </trkpt>
      <trkpt lat="45.98567" lon="3.63695">
        <ele>807.9248</ele>
        <time>2011-10-02T07:29:55Z</time>
      </trkpt>
      <trkpt lat="45.98565" lon="3.63667">
        <ele>808.92487</ele>
        <time>2011-10-02T07:30:19Z</time>
      </trkpt>
      <trkpt lat="45.98557" lon="3.63643">
        <ele>809.9819</ele>
        <time>2011-10-02T07:30:38Z</time>
      </trkpt>
      <trkpt lat="45.98551" lon="3.63617">
        <ele>809.99994</ele>
        <time>2011-10-02T07:30:58Z</time>
      </trkpt>
      <trkpt lat="45.98545" lon="3.63592">
        <ele>810</ele>
        <time>2011-10-02T07:31:12Z</time>
      </trkpt>
      <trkpt lat="45.98538" lon="3.63568">
        <ele>810</ele>
        <time>2011-10-02T07:31:25Z</time>
      </trkpt>
      <trkpt lat="45.98529" lon="3.63544">
        <ele>810</ele>
        <time>2011-10-02T07:31:39Z</time>
      </trkpt>
      <trkpt lat="45.98515" lon="3.63527">
        <ele>809.2373</ele>
        <time>2011-10-02T07:31:53Z</time>
      </trkpt>
      <trkpt lat="45.98497" lon="3.63529">
        <ele>808.5681</ele>
        <time>2011-10-02T07:32:06Z</time>
      </trkpt>
      <trkpt lat="45.9848" lon="3.63517">
        <ele>807.10254</ele>
        <time>2011-10-02T07:32:25Z</time>
      </trkpt>
      <trkpt lat="45.98464" lon="3.63504">
        <ele>805.2708</ele>
        <time>2011-10-02T07:32:39Z</time>
      </trkpt>
      <trkpt lat="45.98446" lon="3.63499">
        <ele>803.62366</ele>
        <time>2011-10-02T07:32:53Z</time>
      </trkpt>
      <trkpt lat="45.9843" lon="3.63484">
        <ele>801.3516</ele>
        <time>2011-10-02T07:33:11Z</time>
      </trkpt>
      <trkpt lat="45.98416" lon="3.63467">
        <ele>800.0798</ele>
        <time>2011-10-02T07:33:26Z</time>
      </trkpt>
      <trkpt lat="45.98403" lon="3.63448">
        <ele>798.79364</ele>
        <time>2011-10-02T07:33:40Z</time>
      </trkpt>
      <trkpt lat="45.984" lon="3.63422">
        <ele>794.1258</ele>
        <time>2011-10-02T07:34:03Z</time>
      </trkpt>
      <trkpt lat="45.98387" lon="3.63403">
        <ele>791.01105</ele>
        <time>2011-10-02T07:34:16Z</time>
      </trkpt>
      <trkpt lat="45.98374" lon="3.63381">
        <ele>788.0083</ele>
        <time>2011-10-02T07:34:29Z</time>
      </trkpt>
      <trkpt lat="45.98362" lon="3.6336">
        <ele>785.06757</ele>
        <time>2011-10-02T07:34:42Z</time>
      </trkpt>
      <trkpt lat="45.98348" lon="3.63341">
        <ele>781.73834</ele>
        <time>2011-10-02T07:34:58Z</time>
      </trkpt>
      <trkpt lat="45.98336" lon="3.63319">
        <ele>779.30676</ele>
        <time>2011-10-02T07:35:12Z</time>
      </trkpt>
      <trkpt lat="45.98334" lon="3.63293">
        <ele>777.2169</ele>
        <time>2011-10-02T07:35:25Z</time>
      </trkpt>
      <trkpt lat="45.98341" lon="3.63268">
        <ele>774.8414</ele>
        <time>2011-10-02T07:35:40Z</time>
      </trkpt>
      <trkpt lat="45.98356" lon="3.63283">
        <ele>769.4152</ele>
        <time>2011-10-02T07:36:49Z</time>
      </trkpt>
      <trkpt lat="45.98374" lon="3.63278">
        <ele>759.01013</ele>
        <time>2011-10-02T07:39:29Z</time>
      </trkpt>
      <trkpt lat="45.98392" lon="3.63283">
        <ele>759.00024</ele>
        <time>2011-10-02T07:39:42Z</time>
      </trkpt>
      <trkpt lat="45.9841" lon="3.63289">
        <ele>759</ele>
        <time>2011-10-02T07:39:57Z</time>
      </trkpt>
      <trkpt lat="45.98428" lon="3.63296">
        <ele>758.0075</ele>
        <time>2011-10-02T07:40:14Z</time>
      </trkpt>
      <trkpt lat="45.98447" lon="3.63298">
        <ele>758</ele>
        <time>2011-10-02T07:40:34Z</time>
      </trkpt>
      <trkpt lat="45.98465" lon="3.63298">
        <ele>758</ele>
        <time>2011-10-02T07:40:52Z</time>
      </trkpt>
      <trkpt lat="45.98483" lon="3.63296">
        <ele>758</ele>
        <time>2011-10-02T07:41:10Z</time>
      </trkpt>
      <trkpt lat="45.98501" lon="3.63296">
        <ele>758.8665</ele>
        <time>2011-10-02T07:41:30Z</time>
      </trkpt>
      <trkpt lat="45.9852" lon="3.63302">
        <ele>759.4357</ele>
        <time>2011-10-02T07:41:45Z</time>
      </trkpt>
      <trkpt lat="45.98538" lon="3.63308">
        <ele>759.99243</ele>
        <time>2011-10-02T07:42:00Z</time>
      </trkpt>
      <trkpt lat="45.98559" lon="3.63323">
        <ele>757.2998</ele>
        <time>2011-10-02T07:42:50Z</time>
      </trkpt>
      <trkpt lat="45.98581" lon="3.6333">
        <ele>754.71204</ele>
        <time>2011-10-02T07:42:54Z</time>
      </trkpt>
      <trkpt lat="45.98606" lon="3.6333">
        <ele>753.12854</ele>
        <time>2011-10-02T07:43:03Z</time>
      </trkpt>
      <trkpt lat="45.98624" lon="3.63328">
        <ele>753.251</ele>
        <time>2011-10-02T07:43:20Z</time>
      </trkpt>
      <trkpt lat="45.98642" lon="3.63326">
        <ele>754.93945</ele>
        <time>2011-10-02T07:43:38Z</time>
      </trkpt>
      <trkpt lat="45.9866" lon="3.63313">
        <ele>756.6172</ele>
        <time>2011-10-02T07:44:28Z</time>
      </trkpt>
      <trkpt lat="45.98674" lon="3.63287">
        <ele>757.6719</ele>
        <time>2011-10-02T07:44:33Z</time>
      </trkpt>
      <trkpt lat="45.98687" lon="3.63263">
        <ele>758.7189</ele>
        <time>2011-10-02T07:44:40Z</time>
      </trkpt>
      <trkpt lat="45.98683" lon="3.63231">
        <ele>759.9747</ele>
        <time>2011-10-02T07:44:58Z</time>
      </trkpt>
      <trkpt lat="45.98685" lon="3.63195">
        <ele>758.77374</ele>
        <time>2011-10-02T07:45:32Z</time>
      </trkpt>
      <trkpt lat="45.98701" lon="3.63178">
        <ele>757.1438</ele>
        <time>2011-10-02T07:45:47Z</time>
      </trkpt>
      <trkpt lat="45.98717" lon="3.63163">
        <ele>757.0081</ele>
        <time>2011-10-02T07:45:57Z</time>
      </trkpt>
      <trkpt lat="45.98731" lon="3.63145">
        <ele>756.0425</ele>
        <time>2011-10-02T07:46:09Z</time>
      </trkpt>
      <trkpt lat="45.98745" lon="3.63128">
        <ele>755.75055</ele>
        <time>2011-10-02T07:46:24Z</time>
      </trkpt>
      <trkpt lat="45.98759" lon="3.63111">
        <ele>755.01</ele>
        <time>2011-10-02T07:46:39Z</time>
      </trkpt>
      <trkpt lat="45.98773" lon="3.63092">
        <ele>755.0002</ele>
        <time>2011-10-02T07:46:53Z</time>
      </trkpt>
      <trkpt lat="45.98783" lon="3.63068">
        <ele>755</ele>
        <time>2011-10-02T07:47:08Z</time>
      </trkpt>
      <trkpt lat="45.98795" lon="3.63047">
        <ele>755.97626</ele>
        <time>2011-10-02T07:47:23Z</time>
      </trkpt>
      <trkpt lat="45.98801" lon="3.63021">
        <ele>754.2609</ele>
        <time>2011-10-02T07:47:41Z</time>
      </trkpt>
      <trkpt lat="45.98807" lon="3.62995">
        <ele>751.42145</ele>
        <time>2011-10-02T07:47:54Z</time>
      </trkpt>
      <trkpt lat="45.98814" lon="3.62969">
        <ele>749.1555</ele>
        <time>2011-10-02T07:48:10Z</time>
      </trkpt>
      <trkpt lat="45.98827" lon="3.6295">
        <ele>749.00116</ele>
        <time>2011-10-02T07:48:27Z</time>
      </trkpt>
      <trkpt lat="45.98844" lon="3.62939">
        <ele>748.0178</ele>
        <time>2011-10-02T07:48:43Z</time>
      </trkpt>
      <trkpt lat="45.98862" lon="3.62933">
        <ele>748.00024</ele>
        <time>2011-10-02T07:48:58Z</time>
      </trkpt>
      <trkpt lat="45.9888" lon="3.62939">
        <ele>747.178</ele>
        <time>2011-10-02T07:49:15Z</time>
      </trkpt>
      <trkpt lat="45.98897" lon="3.62952">
        <ele>747.0018</ele>
        <time>2011-10-02T07:49:31Z</time>
      </trkpt>
      <trkpt lat="45.98913" lon="3.62967">
        <ele>746.0238</ele>
        <time>2011-10-02T07:49:45Z</time>
      </trkpt>
      <trkpt lat="45.98931" lon="3.62976">
        <ele>745.1785</ele>
        <time>2011-10-02T07:49:58Z</time>
      </trkpt>
      <trkpt lat="45.9895" lon="3.62969">
        <ele>745.0042</ele>
        <time>2011-10-02T07:50:11Z</time>
      </trkpt>
      <trkpt lat="45.98964" lon="3.6295">
        <ele>745.68384</ele>
        <time>2011-10-02T07:50:21Z</time>
      </trkpt>
      <trkpt lat="45.98977" lon="3.62931">
        <ele>746.5681</ele>
        <time>2011-10-02T07:50:33Z</time>
      </trkpt>
      <trkpt lat="45.98982" lon="3.62905">
        <ele>746.99994</ele>
        <time>2011-10-02T07:51:06Z</time>
      </trkpt>
      <trkpt lat="45.98997" lon="3.6289">
        <ele>745.80634</ele>
        <time>2011-10-02T07:51:19Z</time>
      </trkpt>
      <trkpt lat="45.99014" lon="3.62879">
        <ele>745.0108</ele>
        <time>2011-10-02T07:51:34Z</time>
      </trkpt>
      <trkpt lat="45.99033" lon="3.62877">
        <ele>744.0239</ele>
        <time>2011-10-02T07:51:49Z</time>
      </trkpt>
      <trkpt lat="45.99051" lon="3.62877">
        <ele>744.00024</ele>
        <time>2011-10-02T07:52:05Z</time>
      </trkpt>
      <trkpt lat="45.99069" lon="3.62879">
        <ele>744</ele>
        <time>2011-10-02T07:52:23Z</time>
      </trkpt>
      <trkpt lat="45.99087" lon="3.62881">
        <ele>747.0904</ele>
        <time>2011-10-02T07:52:44Z</time>
      </trkpt>
      <trkpt lat="45.99105" lon="3.6289">
        <ele>751.34076</ele>
        <time>2011-10-02T07:53:09Z</time>
      </trkpt>
      <trkpt lat="45.99123" lon="3.62899">
        <ele>754.31586</ele>
        <time>2011-10-02T07:53:27Z</time>
      </trkpt>
      <trkpt lat="45.9914" lon="3.62907">
        <ele>757.31573</ele>
        <time>2011-10-02T07:53:45Z</time>
      </trkpt>
      <trkpt lat="45.99158" lon="3.62916">
        <ele>760.5935</ele>
        <time>2011-10-02T07:54:06Z</time>
      </trkpt>
      <trkpt lat="45.99175" lon="3.62926">
        <ele>763.63446</ele>
        <time>2011-10-02T07:54:26Z</time>
      </trkpt>
      <trkpt lat="45.99193" lon="3.62931">
        <ele>765.8066</ele>
        <time>2011-10-02T07:54:44Z</time>
      </trkpt>
      <trkpt lat="45.99211" lon="3.62939">
        <ele>767.6584</ele>
        <time>2011-10-02T07:55:01Z</time>
      </trkpt>
      <trkpt lat="45.99229" lon="3.62946">
        <ele>768.9664</ele>
        <time>2011-10-02T07:55:19Z</time>
      </trkpt>
      <trkpt lat="45.99247" lon="3.6295">
        <ele>769.9759</ele>
        <time>2011-10-02T07:55:35Z</time>
      </trkpt>
      <trkpt lat="45.99265" lon="3.62954">
        <ele>770.2498</ele>
        <time>2011-10-02T07:55:52Z</time>
      </trkpt>
      <trkpt lat="45.99284" lon="3.62961">
        <ele>770.9958</ele>
        <time>2011-10-02T07:56:10Z</time>
      </trkpt>
      <trkpt lat="45.99302" lon="3.62965">
        <ele>771</ele>
        <time>2011-10-02T07:56:30Z</time>
      </trkpt>
      <trkpt lat="45.9932" lon="3.62961">
        <ele>770.4219</ele>
        <time>2011-10-02T07:57:44Z</time>
      </trkpt>
      <trkpt lat="45.99337" lon="3.62969">
        <ele>769.3206</ele>
        <time>2011-10-02T07:58:00Z</time>
      </trkpt>
      <trkpt lat="45.99353" lon="3.62984">
        <ele>768.7543</ele>
        <time>2011-10-02T07:58:15Z</time>
      </trkpt>
      <trkpt lat="45.99368" lon="3.62999">
        <ele>767.2416</ele>
        <time>2011-10-02T07:58:33Z</time>
      </trkpt>
      <trkpt lat="45.99383" lon="3.63014">
        <ele>767.5789</ele>
        <time>2011-10-02T07:58:53Z</time>
      </trkpt>
      <trkpt lat="45.99401" lon="3.63027">
        <ele>768.8975</ele>
        <time>2011-10-02T07:59:11Z</time>
      </trkpt>
      <trkpt lat="45.99418" lon="3.63014">
        <ele>770.9996</ele>
        <time>2011-10-02T08:00:00Z</time>
      </trkpt>
      <trkpt lat="45.99435" lon="3.63002">
        <ele>771.95776</ele>
        <time>2011-10-02T08:00:15Z</time>
      </trkpt>
      <trkpt lat="45.99451" lon="3.62987">
        <ele>772.03253</ele>
        <time>2011-10-02T08:00:32Z</time>
      </trkpt>
      <trkpt lat="45.99467" lon="3.62972">
        <ele>771.4222</ele>
        <time>2011-10-02T08:00:48Z</time>
      </trkpt>
      <trkpt lat="45.99483" lon="3.62957">
        <ele>771.01337</ele>
        <time>2011-10-02T08:01:00Z</time>
      </trkpt>
      <trkpt lat="45.99498" lon="3.62942">
        <ele>770.0566</ele>
        <time>2011-10-02T08:01:14Z</time>
      </trkpt>
      <trkpt lat="45.99514" lon="3.62929">
        <ele>769.04266</ele>
        <time>2011-10-02T08:01:31Z</time>
      </trkpt>
      <trkpt lat="45.9953" lon="3.62914">
        <ele>768.05676</ele>
        <time>2011-10-02T08:01:47Z</time>
      </trkpt>
      <trkpt lat="45.99545" lon="3.62899">
        <ele>767.1348</ele>
        <time>2011-10-02T08:02:00Z</time>
      </trkpt>
      <trkpt lat="45.99565" lon="3.62896">
        <ele>766.0256</ele>
        <time>2011-10-02T08:02:15Z</time>
      </trkpt>
      <trkpt lat="45.99581" lon="3.62911">
        <ele>766.00037</ele>
        <time>2011-10-02T08:02:30Z</time>
      </trkpt>
      <trkpt lat="45.99591" lon="3.62933">
        <ele>766</ele>
        <time>2011-10-02T08:02:49Z</time>
      </trkpt>
      <trkpt lat="45.99599" lon="3.62959">
        <ele>766.95776</ele>
        <time>2011-10-02T08:03:04Z</time>
      </trkpt>
      <trkpt lat="45.99608" lon="3.62982">
        <ele>766.9996</ele>
        <time>2011-10-02T08:03:20Z</time>
      </trkpt>
      <trkpt lat="45.99616" lon="3.63006">
        <ele>767</ele>
        <time>2011-10-02T08:03:35Z</time>
      </trkpt>
      <trkpt lat="45.99624" lon="3.63029">
        <ele>767</ele>
        <time>2011-10-02T08:03:48Z</time>
      </trkpt>
      <trkpt lat="45.99633" lon="3.63053">
        <ele>767.94366</ele>
        <time>2011-10-02T08:04:02Z</time>
      </trkpt>
      <trkpt lat="45.99644" lon="3.63075">
        <ele>767.03094</ele>
        <time>2011-10-02T08:04:17Z</time>
      </trkpt>
      <trkpt lat="45.99652" lon="3.63098">
        <ele>766.04297</ele>
        <time>2011-10-02T08:04:30Z</time>
      </trkpt>
      <trkpt lat="45.9966" lon="3.63122">
        <ele>765.02435</ele>
        <time>2011-10-02T08:04:45Z</time>
      </trkpt>
      <trkpt lat="45.99649" lon="3.63143">
        <ele>764.00323</ele>
        <time>2011-10-02T08:05:06Z</time>
      </trkpt>
      <trkpt lat="45.99631" lon="3.63147">
        <ele>763.0101</ele>
        <time>2011-10-02T08:05:22Z</time>
      </trkpt>
      <trkpt lat="45.99613" lon="3.6315">
        <ele>763.0001</ele>
        <time>2011-10-02T08:05:37Z</time>
      </trkpt>
      <trkpt lat="45.99598" lon="3.63165">
        <ele>762.4219</ele>
        <time>2011-10-02T08:05:52Z</time>
      </trkpt>
      <trkpt lat="45.99585" lon="3.63184">
        <ele>762.0056</ele>
        <time>2011-10-02T08:06:07Z</time>
      </trkpt>
      <trkpt lat="45.99572" lon="3.63205">
        <ele>761.23737</ele>
        <time>2011-10-02T08:06:23Z</time>
      </trkpt>
      <trkpt lat="45.99561" lon="3.63227">
        <ele>761.0042</ele>
        <time>2011-10-02T08:06:37Z</time>
      </trkpt>
      <trkpt lat="45.99551" lon="3.63248">
        <ele>761.0001</ele>
        <time>2011-10-02T08:06:50Z</time>
      </trkpt>
      <trkpt lat="45.99541" lon="3.63272">
        <ele>760.1335</ele>
        <time>2011-10-02T08:07:03Z</time>
      </trkpt>
      <trkpt lat="45.99534" lon="3.63298">
        <ele>760.0018</ele>
        <time>2011-10-02T08:07:18Z</time>
      </trkpt>
      <trkpt lat="45.9952" lon="3.63315">
        <ele>759.5625</ele>
        <time>2011-10-02T08:07:37Z</time>
      </trkpt>
      <trkpt lat="45.99466" lon="3.63356">
        <ele>759</ele>
        <time>2011-10-02T08:08:18Z</time>
      </trkpt>
      <trkpt lat="45.99458" lon="3.63379">
        <ele>757.522</ele>
        <time>2011-10-02T08:08:32Z</time>
      </trkpt>
      <trkpt lat="45.99457" lon="3.63407">
        <ele>756.04095</ele>
        <time>2011-10-02T08:08:46Z</time>
      </trkpt>
      <trkpt lat="45.99449" lon="3.63431">
        <ele>756.00055</ele>
        <time>2011-10-02T08:09:01Z</time>
      </trkpt>
      <trkpt lat="45.99435" lon="3.6345">
        <ele>756.97626</ele>
        <time>2011-10-02T08:09:18Z</time>
      </trkpt>
      <trkpt lat="45.99427" lon="3.63474">
        <ele>757</ele>
        <time>2011-10-02T08:09:42Z</time>
      </trkpt>
      <trkpt lat="45.99434" lon="3.63499">
        <ele>759.7664</ele>
        <time>2011-10-02T08:10:06Z</time>
      </trkpt>
      <trkpt lat="45.99445" lon="3.63521">
        <ele>761.5736</ele>
        <time>2011-10-02T08:10:17Z</time>
      </trkpt>
      <trkpt lat="45.99453" lon="3.63544">
        <ele>763.60925</ele>
        <time>2011-10-02T08:10:28Z</time>
      </trkpt>
      <trkpt lat="45.99465" lon="3.63566">
        <ele>764.7462</ele>
        <time>2011-10-02T08:10:39Z</time>
      </trkpt>
      <trkpt lat="45.99478" lon="3.63585">
        <ele>764.99396</ele>
        <time>2011-10-02T08:10:52Z</time>
      </trkpt>
      <trkpt lat="45.99491" lon="3.63605">
        <ele>764.5623</ele>
        <time>2011-10-02T08:11:04Z</time>
      </trkpt>
      <trkpt lat="45.99501" lon="3.63626">
        <ele>763.0826</ele>
        <time>2011-10-02T08:11:19Z</time>
      </trkpt>
      <trkpt lat="45.99506" lon="3.63652">
        <ele>761.2454</ele>
        <time>2011-10-02T08:11:36Z</time>
      </trkpt>
      <trkpt lat="45.99508" lon="3.63678">
        <ele>760.02454</ele>
        <time>2011-10-02T08:11:56Z</time>
      </trkpt>
      <trkpt lat="45.99509" lon="3.63705">
        <ele>760.0003</ele>
        <time>2011-10-02T08:12:11Z</time>
      </trkpt>
      <trkpt lat="45.99514" lon="3.63731">
        <ele>759.1001</ele>
        <time>2011-10-02T08:12:23Z</time>
      </trkpt>
      <trkpt lat="45.9952" lon="3.63757">
        <ele>758.3188</ele>
        <time>2011-10-02T08:12:36Z</time>
      </trkpt>
      <trkpt lat="45.99516" lon="3.63783">
        <ele>758.0032</ele>
        <time>2011-10-02T08:12:52Z</time>
      </trkpt>
      <trkpt lat="45.99519" lon="3.63808">
        <ele>758.97626</ele>
        <time>2011-10-02T08:13:08Z</time>
      </trkpt>
      <trkpt lat="45.99516" lon="3.63834">
        <ele>759.9568</ele>
        <time>2011-10-02T08:13:19Z</time>
      </trkpt>
      <trkpt lat="45.99506" lon="3.63856">
        <ele>758.2189</ele>
        <time>2011-10-02T08:13:31Z</time>
      </trkpt>
      <trkpt lat="45.99498" lon="3.63879">
        <ele>756.2069</ele>
        <time>2011-10-02T08:13:44Z</time>
      </trkpt>
      <trkpt lat="45.99484" lon="3.63901">
        <ele>754.05133</ele>
        <time>2011-10-02T08:14:01Z</time>
      </trkpt>
      <trkpt lat="45.9947" lon="3.63918">
        <ele>754.68524</ele>
        <time>2011-10-02T08:14:13Z</time>
      </trkpt>
      <trkpt lat="45.99461" lon="3.63941">
        <ele>756.8079</ele>
        <time>2011-10-02T08:14:34Z</time>
      </trkpt>
      <trkpt lat="45.99472" lon="3.63963">
        <ele>756.3056</ele>
        <time>2011-10-02T08:14:44Z</time>
      </trkpt>
      <trkpt lat="45.99485" lon="3.63982">
        <ele>755.1507</ele>
        <time>2011-10-02T08:14:54Z</time>
      </trkpt>
      <trkpt lat="45.99488" lon="3.64008">
        <ele>754.13983</ele>
        <time>2011-10-02T08:15:05Z</time>
      </trkpt>
      <trkpt lat="45.99493" lon="3.64034">
        <ele>752.16846</ele>
        <time>2011-10-02T08:15:18Z</time>
      </trkpt>
      <trkpt lat="45.99497" lon="3.64059">
        <ele>750.20575</ele>
        <time>2011-10-02T08:15:31Z</time>
      </trkpt>
      <trkpt lat="45.99501" lon="3.64085">
        <ele>748.2659</ele>
        <time>2011-10-02T08:15:44Z</time>
      </trkpt>
      <trkpt lat="45.99507" lon="3.64111">
        <ele>746.35284</ele>
        <time>2011-10-02T08:15:58Z</time>
      </trkpt>
      <trkpt lat="45.99517" lon="3.64132">
        <ele>746.0265</ele>
        <time>2011-10-02T08:16:07Z</time>
      </trkpt>
      <trkpt lat="45.99528" lon="3.64154">
        <ele>745.7511</ele>
        <time>2011-10-02T08:16:18Z</time>
      </trkpt>
      <trkpt lat="45.99538" lon="3.64177">
        <ele>743.51483</ele>
        <time>2011-10-02T08:16:31Z</time>
      </trkpt>
      <trkpt lat="45.99546" lon="3.64201">
        <ele>741.2887</ele>
        <time>2011-10-02T08:16:45Z</time>
      </trkpt>
      <trkpt lat="45.99556" lon="3.64225">
        <ele>739.20557</ele>
        <time>2011-10-02T08:17:00Z</time>
      </trkpt>
      <trkpt lat="45.99564" lon="3.64248">
        <ele>737.589</ele>
        <time>2011-10-02T08:17:15Z</time>
      </trkpt>
      <trkpt lat="45.99566" lon="3.64276">
        <ele>736.56696</ele>
        <time>2011-10-02T08:17:32Z</time>
      </trkpt>
      <trkpt lat="45.99563" lon="3.64302">
        <ele>736</ele>
        <time>2011-10-02T08:18:09Z</time>
      </trkpt>
      <trkpt lat="45.99555" lon="3.64326">
        <ele>736.95776</ele>
        <time>2011-10-02T08:18:20Z</time>
      </trkpt>
      <trkpt lat="45.99548" lon="3.64349">
        <ele>736.56177</ele>
        <time>2011-10-02T08:18:34Z</time>
      </trkpt>
      <trkpt lat="45.99549" lon="3.64377">
        <ele>736.01</ele>
        <time>2011-10-02T08:18:48Z</time>
      </trkpt>
      <trkpt lat="45.99553" lon="3.64403">
        <ele>736.94385</ele>
        <time>2011-10-02T08:19:02Z</time>
      </trkpt>
      <trkpt lat="45.99567" lon="3.6442">
        <ele>737.0764</ele>
        <time>2011-10-02T08:19:17Z</time>
      </trkpt>
      <trkpt lat="45.99585" lon="3.64422">
        <ele>736.56683</ele>
        <time>2011-10-02T08:19:27Z</time>
      </trkpt>
      <trkpt lat="45.99603" lon="3.64422">
        <ele>734.4567</ele>
        <time>2011-10-02T08:19:45Z</time>
      </trkpt>
      <trkpt lat="45.99622" lon="3.64424">
        <ele>733.0812</ele>
        <time>2011-10-02T08:20:00Z</time>
      </trkpt>
      <trkpt lat="45.9964" lon="3.64429">
        <ele>731.25146</ele>
        <time>2011-10-02T08:20:16Z</time>
      </trkpt>
      <trkpt lat="45.99658" lon="3.64431">
        <ele>730.13794</ele>
        <time>2011-10-02T08:20:30Z</time>
      </trkpt>
      <trkpt lat="45.99676" lon="3.64426">
        <ele>726.9553</ele>
        <time>2011-10-02T08:20:50Z</time>
      </trkpt>
      <trkpt lat="45.99694" lon="3.64433">
        <ele>724.91376</ele>
        <time>2011-10-02T08:21:02Z</time>
      </trkpt>
      <trkpt lat="45.99714" lon="3.64437">
        <ele>722.5509</ele>
        <time>2011-10-02T08:21:14Z</time>
      </trkpt>
      <trkpt lat="45.99732" lon="3.64441">
        <ele>719.9695</ele>
        <time>2011-10-02T08:21:28Z</time>
      </trkpt>
      <trkpt lat="45.9975" lon="3.64441">
        <ele>716.7924</ele>
        <time>2011-10-02T08:21:44Z</time>
      </trkpt>
      <trkpt lat="45.99769" lon="3.64437">
        <ele>714.3692</ele>
        <time>2011-10-02T08:21:59Z</time>
      </trkpt>
      <trkpt lat="45.99786" lon="3.64429">
        <ele>712.28613</ele>
        <time>2011-10-02T08:22:13Z</time>
      </trkpt>
      <trkpt lat="45.99804" lon="3.64422">
        <ele>709.4037</ele>
        <time>2011-10-02T08:22:30Z</time>
      </trkpt>
      <trkpt lat="45.99822" lon="3.64426">
        <ele>707.06067</ele>
        <time>2011-10-02T08:22:41Z</time>
      </trkpt>
      <trkpt lat="45.9984" lon="3.64431">
        <ele>704.50964</ele>
        <time>2011-10-02T08:22:51Z</time>
      </trkpt>
      <trkpt lat="45.99859" lon="3.64433">
        <ele>699.96906</ele>
        <time>2011-10-02T08:23:05Z</time>
      </trkpt>
      <trkpt lat="45.99877" lon="3.64433">
        <ele>694.7297</ele>
        <time>2011-10-02T08:23:21Z</time>
      </trkpt>
      <trkpt lat="45.99895" lon="3.64437">
        <ele>690.1114</ele>
        <time>2011-10-02T08:23:37Z</time>
      </trkpt>
      <trkpt lat="45.99913" lon="3.64444">
        <ele>686.4236</ele>
        <time>2011-10-02T08:23:54Z</time>
      </trkpt>
      <trkpt lat="45.99932" lon="3.64448">
        <ele>682.5636</ele>
        <time>2011-10-02T08:24:12Z</time>
      </trkpt>
      <trkpt lat="45.9995" lon="3.64454">
        <ele>678.73755</ele>
        <time>2011-10-02T08:24:31Z</time>
      </trkpt>
      <trkpt lat="45.99967" lon="3.64463">
        <ele>675.0876</ele>
        <time>2011-10-02T08:24:47Z</time>
      </trkpt>
      <trkpt lat="45.99984" lon="3.64471">
        <ele>671.09705</ele>
        <time>2011-10-02T08:25:03Z</time>
      </trkpt>
      <trkpt lat="46.00002" lon="3.64476">
        <ele>667.42145</ele>
        <time>2011-10-02T08:25:21Z</time>
      </trkpt>
      <trkpt lat="46.0002" lon="3.64467">
        <ele>663.56354</ele>
        <time>2011-10-02T08:25:39Z</time>
      </trkpt>
      <trkpt lat="46.00023" lon="3.64441">
        <ele>658.6956</ele>
        <time>2011-10-02T08:25:55Z</time>
      </trkpt>
      <trkpt lat="46.00023" lon="3.64413">
        <ele>655.0392</ele>
        <time>2011-10-02T08:26:09Z</time>
      </trkpt>
      <trkpt lat="46.00021" lon="3.64388">
        <ele>651.8012</ele>
        <time>2011-10-02T08:26:23Z</time>
      </trkpt>
      <trkpt lat="46.00037" lon="3.64401">
        <ele>646.30994</ele>
        <time>2011-10-02T08:26:53Z</time>
      </trkpt>
      <trkpt lat="46.00047" lon="3.64422">
        <ele>643.6846</ele>
        <time>2011-10-02T08:27:08Z</time>
      </trkpt>
      <trkpt lat="46.00053" lon="3.64448">
        <ele>641.3849</ele>
        <time>2011-10-02T08:27:22Z</time>
      </trkpt>
      <trkpt lat="46.00058" lon="3.64474">
        <ele>639.2394</ele>
        <time>2011-10-02T08:27:47Z</time>
      </trkpt>
      <trkpt lat="46.00073" lon="3.64489">
        <ele>638.18115</ele>
        <time>2011-10-02T08:28:02Z</time>
      </trkpt>
      <trkpt lat="46.0009" lon="3.64501">
        <ele>637.0239</ele>
        <time>2011-10-02T08:28:26Z</time>
      </trkpt>
      <trkpt lat="46.00105" lon="3.64519">
        <ele>635.00024</ele>
        <time>2011-10-02T08:29:07Z</time>
      </trkpt>
      <trkpt lat="46.00113" lon="3.64544">
        <ele>635.7627</ele>
        <time>2011-10-02T08:29:28Z</time>
      </trkpt>
      <trkpt lat="46.00128" lon="3.64562">
        <ele>637.55334</ele>
        <time>2011-10-02T08:29:47Z</time>
      </trkpt>
      <trkpt lat="46.00143" lon="3.64577">
        <ele>638.57214</ele>
        <time>2011-10-02T08:30:02Z</time>
      </trkpt>
      <trkpt lat="46.00157" lon="3.64594">
        <ele>639.4374</ele>
        <time>2011-10-02T08:30:31Z</time>
      </trkpt>
      <trkpt lat="46.00171" lon="3.64611">
        <ele>641.8404</ele>
        <time>2011-10-02T08:30:50Z</time>
      </trkpt>
      <trkpt lat="46.00184" lon="3.6463">
        <ele>645.3265</ele>
        <time>2011-10-02T08:31:15Z</time>
      </trkpt>
      <trkpt lat="46.00189" lon="3.64656">
        <ele>648.66473</ele>
        <time>2011-10-02T08:31:32Z</time>
      </trkpt>
      <trkpt lat="46.00185" lon="3.64682">
        <ele>653.47186</ele>
        <time>2011-10-02T08:31:55Z</time>
      </trkpt>
      <trkpt lat="46.00174" lon="3.64705">
        <ele>657.6098</ele>
        <time>2011-10-02T08:32:17Z</time>
      </trkpt>
      <trkpt lat="46.00167" lon="3.64729">
        <ele>662.07153</ele>
        <time>2011-10-02T08:32:38Z</time>
      </trkpt>
      <trkpt lat="46.00158" lon="3.64753">
        <ele>665.5096</ele>
        <time>2011-10-02T08:32:59Z</time>
      </trkpt>
      <trkpt lat="46.00152" lon="3.64778">
        <ele>668.6182</ele>
        <time>2011-10-02T08:33:19Z</time>
      </trkpt>
      <trkpt lat="46.00147" lon="3.64804">
        <ele>673.5235</ele>
        <time>2011-10-02T08:33:39Z</time>
      </trkpt>
      <trkpt lat="46.00144" lon="3.64832">
        <ele>677.0698</ele>
        <time>2011-10-02T08:34:09Z</time>
      </trkpt>
      <trkpt lat="46.00146" lon="3.6486">
        <ele>678.52576</ele>
        <time>2011-10-02T08:34:19Z</time>
      </trkpt>
      <trkpt lat="46.00161" lon="3.64875">
        <ele>681.7671</ele>
        <time>2011-10-02T08:34:37Z</time>
      </trkpt>
      <trkpt lat="46.00179" lon="3.64875">
        <ele>684.7633</ele>
        <time>2011-10-02T08:34:52Z</time>
      </trkpt>
      <trkpt lat="46.00198" lon="3.64875">
        <ele>687.39886</ele>
        <time>2011-10-02T08:35:10Z</time>
      </trkpt>
      <trkpt lat="46.00216" lon="3.64877">
        <ele>688.8657</ele>
        <time>2011-10-02T08:35:33Z</time>
      </trkpt>
      <trkpt lat="46.00234" lon="3.64875">
        <ele>690.64</ele>
        <time>2011-10-02T08:35:49Z</time>
      </trkpt>
      <trkpt lat="46.00252" lon="3.64868">
        <ele>692.83795</ele>
        <time>2011-10-02T08:36:04Z</time>
      </trkpt>
      <trkpt lat="46.00271" lon="3.64864">
        <ele>694.736</ele>
        <time>2011-10-02T08:36:18Z</time>
      </trkpt>
      <trkpt lat="46.00289" lon="3.64856">
        <ele>695.98157</ele>
        <time>2011-10-02T08:36:39Z</time>
      </trkpt>
      <trkpt lat="46.00307" lon="3.64851">
        <ele>696.9249</ele>
        <time>2011-10-02T08:37:06Z</time>
      </trkpt>
      <trkpt lat="46.00325" lon="3.64845">
        <ele>697.9749</ele>
        <time>2011-10-02T08:37:20Z</time>
      </trkpt>
      <trkpt lat="46.00343" lon="3.64834">
        <ele>698.99426</ele>
        <time>2011-10-02T08:37:40Z</time>
      </trkpt>
      <trkpt lat="46.0036" lon="3.64821">
        <ele>699.9436</ele>
        <time>2011-10-02T08:37:55Z</time>
      </trkpt>
      <trkpt lat="46.00377" lon="3.64808">
        <ele>698.2544</ele>
        <time>2011-10-02T08:38:10Z</time>
      </trkpt>
      <trkpt lat="46.00394" lon="3.648">
        <ele>697.0831</ele>
        <time>2011-10-02T08:38:22Z</time>
      </trkpt>
      <trkpt lat="46.00412" lon="3.64793">
        <ele>695.34216</ele>
        <time>2011-10-02T08:38:35Z</time>
      </trkpt>
      <trkpt lat="46.00429" lon="3.64783">
        <ele>694.1047</ele>
        <time>2011-10-02T08:38:50Z</time>
      </trkpt>
      <trkpt lat="46.00444" lon="3.64765">
        <ele>694.00104</ele>
        <time>2011-10-02T08:39:06Z</time>
      </trkpt>
      <trkpt lat="46.00444" lon="3.64738">
        <ele>694</ele>
        <time>2011-10-02T08:40:12Z</time>
      </trkpt>
      <trkpt lat="46.00437" lon="3.64714">
        <ele>699.6289</ele>
        <time>2011-10-02T08:41:38Z</time>
      </trkpt>
      <trkpt lat="46.00426" lon="3.64692">
        <ele>701.96716</ele>
        <time>2011-10-02T08:42:05Z</time>
      </trkpt>
      <trkpt lat="46.00417" lon="3.64669">
        <ele>701.0042</ele>
        <time>2011-10-02T08:42:28Z</time>
      </trkpt>
      <trkpt lat="46.00409" lon="3.64645">
        <ele>700.13354</ele>
        <time>2011-10-02T08:42:45Z</time>
      </trkpt>
      <trkpt lat="46.00402" lon="3.64622">
        <ele>699.03345</ele>
        <time>2011-10-02T08:43:00Z</time>
      </trkpt>
      <trkpt lat="46.0042" lon="3.64619">
        <ele>698</ele>
        <time>2011-10-02T08:43:43Z</time>
      </trkpt>
      <trkpt lat="46.00438" lon="3.64613">
        <ele>697.1001</ele>
        <time>2011-10-02T08:44:02Z</time>
      </trkpt>
      <trkpt lat="46.00456" lon="3.64611">
        <ele>695.3305</ele>
        <time>2011-10-02T08:44:19Z</time>
      </trkpt>
      <trkpt lat="46.00474" lon="3.64611">
        <ele>695.00104</ele>
        <time>2011-10-02T08:44:39Z</time>
      </trkpt>
      <trkpt lat="46.00493" lon="3.64615">
        <ele>695.8999</ele>
        <time>2011-10-02T08:44:58Z</time>
      </trkpt>
      <trkpt lat="46.00511" lon="3.64622">
        <ele>698.942</ele>
        <time>2011-10-02T08:45:14Z</time>
      </trkpt>
      <trkpt lat="46.00529" lon="3.64622">
        <ele>704.1997</ele>
        <time>2011-10-02T08:45:38Z</time>
      </trkpt>
      <trkpt lat="46.00547" lon="3.64626">
        <ele>708.47174</ele>
        <time>2011-10-02T08:45:59Z</time>
      </trkpt>
      <trkpt lat="46.00562" lon="3.64641">
        <ele>710.9186</ele>
        <time>2011-10-02T08:46:22Z</time>
      </trkpt>
      <trkpt lat="46.00576" lon="3.6466">
        <ele>712.8175</ele>
        <time>2011-10-02T08:46:42Z</time>
      </trkpt>
      <trkpt lat="46.00594" lon="3.64669">
        <ele>713.9989</ele>
        <time>2011-10-02T08:47:08Z</time>
      </trkpt>
      <trkpt lat="46.00611" lon="3.64682">
        <ele>716.4999</ele>
        <time>2011-10-02T08:47:35Z</time>
      </trkpt>
      <trkpt lat="46.00629" lon="3.64688">
        <ele>718.6674</ele>
        <time>2011-10-02T08:47:53Z</time>
      </trkpt>
      <trkpt lat="46.00646" lon="3.64697">
        <ele>718.99664</ele>
        <time>2011-10-02T08:48:09Z</time>
      </trkpt>
      <trkpt lat="46.00663" lon="3.64707">
        <ele>719.8665</ele>
        <time>2011-10-02T08:48:26Z</time>
      </trkpt>
      <trkpt lat="46.0068" lon="3.64716">
        <ele>720.6834</ele>
        <time>2011-10-02T08:48:49Z</time>
      </trkpt>
      <trkpt lat="46.00698" lon="3.64725">
        <ele>721.999</ele>
        <time>2011-10-02T08:49:29Z</time>
      </trkpt>
      <trkpt lat="46.00715" lon="3.64733">
        <ele>723.7617</ele>
        <time>2011-10-02T08:50:03Z</time>
      </trkpt>
      <trkpt lat="46.00731" lon="3.64746">
        <ele>725.5327</ele>
        <time>2011-10-02T08:50:18Z</time>
      </trkpt>
      <trkpt lat="46.00747" lon="3.64759">
        <ele>727.23553</ele>
        <time>2011-10-02T08:50:39Z</time>
      </trkpt>
      <trkpt lat="46.00763" lon="3.64772">
        <ele>729.52045</ele>
        <time>2011-10-02T08:51:01Z</time>
      </trkpt>
      <trkpt lat="46.00778" lon="3.64789">
        <ele>730.79504</ele>
        <time>2011-10-02T08:51:11Z</time>
      </trkpt>
      <trkpt lat="46.00793" lon="3.64804">
        <ele>733.4744</ele>
        <time>2011-10-02T08:51:24Z</time>
      </trkpt>
      <trkpt lat="46.00808" lon="3.64819">
        <ele>736.3451</ele>
        <time>2011-10-02T08:51:41Z</time>
      </trkpt>
      <trkpt lat="46.00823" lon="3.64836">
        <ele>737.93713</ele>
        <time>2011-10-02T08:51:57Z</time>
      </trkpt>
      <trkpt lat="46.00838" lon="3.64851">
        <ele>739.6649</ele>
        <time>2011-10-02T08:52:12Z</time>
      </trkpt>
      <trkpt lat="46.00853" lon="3.64866">
        <ele>740.89655</ele>
        <time>2011-10-02T08:52:28Z</time>
      </trkpt>
      <trkpt lat="46.00867" lon="3.64883">
        <ele>742.95166</ele>
        <time>2011-10-02T08:52:47Z</time>
      </trkpt>
      <trkpt lat="46.00881" lon="3.64901">
        <ele>745.3733</ele>
        <time>2011-10-02T08:53:04Z</time>
      </trkpt>
      <trkpt lat="46.00895" lon="3.64918">
        <ele>746.95306</ele>
        <time>2011-10-02T08:53:21Z</time>
      </trkpt>
      <trkpt lat="46.0091" lon="3.64935">
        <ele>748.8161</ele>
        <time>2011-10-02T08:53:39Z</time>
      </trkpt>
      <trkpt lat="46.00926" lon="3.64948">
        <ele>748.99976</ele>
        <time>2011-10-02T08:54:02Z</time>
      </trkpt>
      <trkpt lat="46.0094" lon="3.64965">
        <ele>749.95776</ele>
        <time>2011-10-02T08:54:17Z</time>
      </trkpt>
      <trkpt lat="46.00955" lon="3.6498">
        <ele>750.7617</ele>
        <time>2011-10-02T08:54:30Z</time>
      </trkpt>
      <trkpt lat="46.0097" lon="3.64995">
        <ele>751.7603</ele>
        <time>2011-10-02T08:54:46Z</time>
      </trkpt>
      <trkpt lat="46.00985" lon="3.65012">
        <ele>752.81775</ele>
        <time>2011-10-02T08:55:00Z</time>
      </trkpt>
      <trkpt lat="46.01003" lon="3.65021">
        <ele>754.6389</ele>
        <time>2011-10-02T08:55:15Z</time>
      </trkpt>
      <trkpt lat="46.01021" lon="3.65029">
        <ele>756.7353</ele>
        <time>2011-10-02T08:55:31Z</time>
      </trkpt>
      <trkpt lat="46.01038" lon="3.65038">
        <ele>758.73627</ele>
        <time>2011-10-02T08:55:47Z</time>
      </trkpt>
      <trkpt lat="46.01056" lon="3.65044">
        <ele>760.2157</ele>
        <time>2011-10-02T08:56:03Z</time>
      </trkpt>
      <trkpt lat="46.01075" lon="3.65053">
        <ele>760.9921</ele>
        <time>2011-10-02T08:56:19Z</time>
      </trkpt>
      <trkpt lat="46.01092" lon="3.65066">
        <ele>761.96826</ele>
        <time>2011-10-02T08:56:35Z</time>
      </trkpt>
      <trkpt lat="46.01107" lon="3.65083">
        <ele>761.9996</ele>
        <time>2011-10-02T08:56:50Z</time>
      </trkpt>
      <trkpt lat="46.01121" lon="3.65102">
        <ele>761.0056</ele>
        <time>2011-10-02T08:57:08Z</time>
      </trkpt>
      <trkpt lat="46.01134" lon="3.65122">
        <ele>760.01337</ele>
        <time>2011-10-02T08:57:43Z</time>
      </trkpt>
      <trkpt lat="46.01147" lon="3.65143">
        <ele>760.0002</ele>
        <time>2011-10-02T08:57:58Z</time>
      </trkpt>
      <trkpt lat="46.01158" lon="3.65165">
        <ele>760</ele>
        <time>2011-10-02T08:58:10Z</time>
      </trkpt>
      <trkpt lat="46.01171" lon="3.65184">
        <ele>759.0751</ele>
        <time>2011-10-02T08:58:26Z</time>
      </trkpt>
      <trkpt lat="46.01184" lon="3.65165">
        <ele>758.3182</ele>
        <time>2011-10-02T08:58:39Z</time>
      </trkpt>
      <trkpt lat="46.01197" lon="3.65143">
        <ele>757.13916</ele>
        <time>2011-10-02T08:58:53Z</time>
      </trkpt>
      <trkpt lat="46.01209" lon="3.65124">
        <ele>756.0192</ele>
        <time>2011-10-02T08:59:09Z</time>
      </trkpt>
      <trkpt lat="46.01222" lon="3.65102">
        <ele>755.0566</ele>
        <time>2011-10-02T08:59:24Z</time>
      </trkpt>
      <trkpt lat="46.01236" lon="3.65083">
        <ele>755.00073</ele>
        <time>2011-10-02T08:59:39Z</time>
      </trkpt>
      <trkpt lat="46.01251" lon="3.65068">
        <ele>754.02374</ele>
        <time>2011-10-02T08:59:54Z</time>
      </trkpt>
      <trkpt lat="46.01264" lon="3.65049">
        <ele>753.7504</ele>
        <time>2011-10-02T09:00:08Z</time>
      </trkpt>
      <trkpt lat="46.01276" lon="3.65027">
        <ele>753.01</ele>
        <time>2011-10-02T09:00:23Z</time>
      </trkpt>
      <trkpt lat="46.0129" lon="3.65008">
        <ele>752.00757</ele>
        <time>2011-10-02T09:00:40Z</time>
      </trkpt>
      <trkpt lat="46.01303" lon="3.64986">
        <ele>750.751</ele>
        <time>2011-10-02T09:01:17Z</time>
      </trkpt>
      <trkpt lat="46.01313" lon="3.64965">
        <ele>750.01337</ele>
        <time>2011-10-02T09:01:31Z</time>
      </trkpt>
      <trkpt lat="46.01324" lon="3.64944">
        <ele>749.1004</ele>
        <time>2011-10-02T09:01:44Z</time>
      </trkpt>
      <trkpt lat="46.01334" lon="3.6492">
        <ele>749.0018</ele>
        <time>2011-10-02T09:01:58Z</time>
      </trkpt>
      <trkpt lat="46.01341" lon="3.64896">
        <ele>748.31647</ele>
        <time>2011-10-02T09:02:12Z</time>
      </trkpt>
      <trkpt lat="46.01349" lon="3.64873">
        <ele>748.0056</ele>
        <time>2011-10-02T09:02:26Z</time>
      </trkpt>
      <trkpt lat="46.01347" lon="3.64847">
        <ele>744.13354</ele>
        <time>2011-10-02T09:04:02Z</time>
      </trkpt>
      <trkpt lat="46.01353" lon="3.64821">
        <ele>741.85864</ele>
        <time>2011-10-02T09:04:19Z</time>
      </trkpt>
      <trkpt lat="46.01362" lon="3.64798">
        <ele>741.0065</ele>
        <time>2011-10-02T09:04:36Z</time>
      </trkpt>
      <trkpt lat="46.01368" lon="3.64772">
        <ele>741.0007</ele>
        <time>2011-10-02T09:04:44Z</time>
      </trkpt>
      <trkpt lat="46.01377" lon="3.64748">
        <ele>740.05634</ele>
        <time>2011-10-02T09:04:54Z</time>
      </trkpt>
      <trkpt lat="46.01384" lon="3.64725">
        <ele>740.0024</ele>
        <time>2011-10-02T09:05:05Z</time>
      </trkpt>
      <trkpt lat="46.01389" lon="3.64699">
        <ele>739.0238</ele>
        <time>2011-10-02T09:05:18Z</time>
      </trkpt>
      <trkpt lat="46.01385" lon="3.64673">
        <ele>738.13446</ele>
        <time>2011-10-02T09:05:29Z</time>
      </trkpt>
      <trkpt lat="46.01381" lon="3.64647">
        <ele>737.07935</ele>
        <time>2011-10-02T09:05:41Z</time>
      </trkpt>
      <trkpt lat="46.01378" lon="3.64622">
        <ele>735.8097</ele>
        <time>2011-10-02T09:05:52Z</time>
      </trkpt>
      <trkpt lat="46.0138" lon="3.64596">
        <ele>733.2612</ele>
        <time>2011-10-02T09:06:22Z</time>
      </trkpt>
      <trkpt lat="46.01381" lon="3.64568">
        <ele>731.7559</ele>
        <time>2011-10-02T09:06:46Z</time>
      </trkpt>
      <trkpt lat="46.01389" lon="3.64544">
        <ele>731.01013</ele>
        <time>2011-10-02T09:07:01Z</time>
      </trkpt>
      <trkpt lat="46.01399" lon="3.64523">
        <ele>730.00757</ele>
        <time>2011-10-02T09:07:18Z</time>
      </trkpt>
      <trkpt lat="46.0141" lon="3.64499">
        <ele>729.00757</ele>
        <time>2011-10-02T09:07:35Z</time>
      </trkpt>
      <trkpt lat="46.01422" lon="3.64478">
        <ele>727.4398</ele>
        <time>2011-10-02T09:07:49Z</time>
      </trkpt>
      <trkpt lat="46.0143" lon="3.64454">
        <ele>726.1884</ele>
        <time>2011-10-02T09:08:02Z</time>
      </trkpt>
      <trkpt lat="46.01441" lon="3.64433">
        <ele>726.006</ele>
        <time>2011-10-02T09:08:14Z</time>
      </trkpt>
      <trkpt lat="46.01454" lon="3.64411">
        <ele>725.0134</ele>
        <time>2011-10-02T09:08:29Z</time>
      </trkpt>
      <trkpt lat="46.01468" lon="3.64394">
        <ele>723.76807</ele>
        <time>2011-10-02T09:08:43Z</time>
      </trkpt>
      <trkpt lat="46.01486" lon="3.64383">
        <ele>721.55554</ele>
        <time>2011-10-02T09:09:12Z</time>
      </trkpt>
      <trkpt lat="46.01502" lon="3.64371">
        <ele>718.5203</ele>
        <time>2011-10-02T09:09:28Z</time>
      </trkpt>
      <trkpt lat="46.01519" lon="3.6436">
        <ele>716.44855</ele>
        <time>2011-10-02T09:09:46Z</time>
      </trkpt>
      <trkpt lat="46.01538" lon="3.64353">
        <ele>716.006</ele>
        <time>2011-10-02T09:10:01Z</time>
      </trkpt>
      <trkpt lat="46.01556" lon="3.64347">
        <ele>716.0001</ele>
        <time>2011-10-02T09:10:15Z</time>
      </trkpt>
      <trkpt lat="46.01574" lon="3.64343">
        <ele>715.1001</ele>
        <time>2011-10-02T09:10:30Z</time>
      </trkpt>
      <trkpt lat="46.01592" lon="3.64338">
        <ele>715.8683</ele>
        <time>2011-10-02T09:10:44Z</time>
      </trkpt>
      <trkpt lat="46.01611" lon="3.64336">
        <ele>716.75714</ele>
        <time>2011-10-02T09:10:55Z</time>
      </trkpt>
      <trkpt lat="46.01629" lon="3.64334">
        <ele>717.75946</ele>
        <time>2011-10-02T09:11:10Z</time>
      </trkpt>
      <trkpt lat="46.01647" lon="3.64336">
        <ele>717.99426</ele>
        <time>2011-10-02T09:11:23Z</time>
      </trkpt>
      <trkpt lat="46.01665" lon="3.64338">
        <ele>718.7625</ele>
        <time>2011-10-02T09:11:35Z</time>
      </trkpt>
      <trkpt lat="46.01684" lon="3.64345">
        <ele>718.99866</ele>
        <time>2011-10-02T09:11:53Z</time>
      </trkpt>
      <trkpt lat="46.01702" lon="3.64349">
        <ele>719</ele>
        <time>2011-10-02T09:12:08Z</time>
      </trkpt>
      <trkpt lat="46.01719" lon="3.64358">
        <ele>719.12164</ele>
        <time>2011-10-02T09:12:28Z</time>
      </trkpt>
      <trkpt lat="46.01736" lon="3.64368">
        <ele>719.99</ele>
        <time>2011-10-02T09:12:59Z</time>
      </trkpt>
      <trkpt lat="46.01752" lon="3.64381">
        <ele>719.9999</ele>
        <time>2011-10-02T09:13:14Z</time>
      </trkpt>
      <trkpt lat="46.01767" lon="3.64396">
        <ele>720</ele>
        <time>2011-10-02T09:13:32Z</time>
      </trkpt>
      <trkpt lat="46.01784" lon="3.64409">
        <ele>720</ele>
        <time>2011-10-02T09:13:50Z</time>
      </trkpt>
      <trkpt lat="46.01799" lon="3.64424">
        <ele>719.0317</ele>
        <time>2011-10-02T09:14:06Z</time>
      </trkpt>
      <trkpt lat="46.01815" lon="3.64441">
        <ele>718.05676</ele>
        <time>2011-10-02T09:14:21Z</time>
      </trkpt>
      <trkpt lat="46.01825" lon="3.64463">
        <ele>716.6202</ele>
        <time>2011-10-02T09:14:34Z</time>
      </trkpt>
      <trkpt lat="46.01836" lon="3.64484">
        <ele>713.7719</ele>
        <time>2011-10-02T09:14:46Z</time>
      </trkpt>
      <trkpt lat="46.01846" lon="3.64508">
        <ele>711.23395</ele>
        <time>2011-10-02T09:15:00Z</time>
      </trkpt>
      <trkpt lat="46.01853" lon="3.64534">
        <ele>709.08746</ele>
        <time>2011-10-02T09:15:16Z</time>
      </trkpt>
      <trkpt lat="46.01862" lon="3.64557">
        <ele>706</ele>
        <time>2011-10-02T09:16:16Z</time>
      </trkpt>
      <trkpt lat="46.01864" lon="3.64583">
        <ele>702.0893</ele>
        <time>2011-10-02T09:16:36Z</time>
      </trkpt>
      <trkpt lat="46.01867" lon="3.64609">
        <ele>699.23114</ele>
        <time>2011-10-02T09:16:52Z</time>
      </trkpt>
      <trkpt lat="46.01878" lon="3.64632">
        <ele>697.0839</ele>
        <time>2011-10-02T09:17:10Z</time>
      </trkpt>
      <trkpt lat="46.01893" lon="3.64647">
        <ele>696.0189</ele>
        <time>2011-10-02T09:17:25Z</time>
      </trkpt>
      <trkpt lat="46.01907" lon="3.64665">
        <ele>695.0102</ele>
        <time>2011-10-02T09:17:42Z</time>
      </trkpt>
      <trkpt lat="46.01921" lon="3.64682">
        <ele>692.41785</ele>
        <time>2011-10-02T09:18:07Z</time>
      </trkpt>
      <trkpt lat="46.01939" lon="3.64688">
        <ele>689.39026</ele>
        <time>2011-10-02T09:18:23Z</time>
      </trkpt>
      <trkpt lat="46.01957" lon="3.64675">
        <ele>687.40796</ele>
        <time>2011-10-02T09:18:34Z</time>
      </trkpt>
      <trkpt lat="46.01972" lon="3.64658">
        <ele>684.0958</ele>
        <time>2011-10-02T09:18:47Z</time>
      </trkpt>
      <trkpt lat="46.01988" lon="3.64645">
        <ele>679.9682</ele>
        <time>2011-10-02T09:19:00Z</time>
      </trkpt>
      <trkpt lat="46.02007" lon="3.64641">
        <ele>675.62067</ele>
        <time>2011-10-02T09:19:16Z</time>
      </trkpt>
      <trkpt lat="46.02025" lon="3.64639">
        <ele>669.65216</ele>
        <time>2011-10-02T09:19:46Z</time>
      </trkpt>
      <trkpt lat="46.02043" lon="3.64643">
        <ele>663.0058</ele>
        <time>2011-10-02T09:20:03Z</time>
      </trkpt>
      <trkpt lat="46.0206" lon="3.64654">
        <ele>658.78357</ele>
        <time>2011-10-02T09:20:18Z</time>
      </trkpt>
      <trkpt lat="46.02077" lon="3.64667">
        <ele>656.1651</ele>
        <time>2011-10-02T09:20:34Z</time>
      </trkpt>
      <trkpt lat="46.02092" lon="3.64682">
        <ele>654.1987</ele>
        <time>2011-10-02T09:20:48Z</time>
      </trkpt>
      <trkpt lat="46.02107" lon="3.64697">
        <ele>653.0599</ele>
        <time>2011-10-02T09:21:02Z</time>
      </trkpt>
      <trkpt lat="46.02126" lon="3.64705">
        <ele>651.3269</ele>
        <time>2011-10-02T09:21:19Z</time>
      </trkpt>
      <trkpt lat="46.02144" lon="3.64714">
        <ele>650.1804</ele>
        <time>2011-10-02T09:21:36Z</time>
      </trkpt>
      <trkpt lat="46.02162" lon="3.6472">
        <ele>648.5046</ele>
        <time>2011-10-02T09:21:47Z</time>
      </trkpt>
      <trkpt lat="46.0218" lon="3.64729">
        <ele>646.4075</ele>
        <time>2011-10-02T09:21:59Z</time>
      </trkpt>
      <trkpt lat="46.02195" lon="3.64746">
        <ele>643.7479</ele>
        <time>2011-10-02T09:22:12Z</time>
      </trkpt>
      <trkpt lat="46.02211" lon="3.64761">
        <ele>641.33606</ele>
        <time>2011-10-02T09:22:24Z</time>
      </trkpt>
      <trkpt lat="46.0223" lon="3.64768">
        <ele>637.8206</ele>
        <time>2011-10-02T09:22:38Z</time>
      </trkpt>
      <trkpt lat="46.02248" lon="3.6477">
        <ele>634.8022</ele>
        <time>2011-10-02T09:22:51Z</time>
      </trkpt>
      <trkpt lat="46.02266" lon="3.64765">
        <ele>631.7384</ele>
        <time>2011-10-02T09:23:06Z</time>
      </trkpt>
      <trkpt lat="46.02284" lon="3.64763">
        <ele>628.5556</ele>
        <time>2011-10-02T09:23:21Z</time>
      </trkpt>
      <trkpt lat="46.02303" lon="3.64757">
        <ele>624.75714</ele>
        <time>2011-10-02T09:23:37Z</time>
      </trkpt>
      <trkpt lat="46.02321" lon="3.64753">
        <ele>621.3127</ele>
        <time>2011-10-02T09:23:54Z</time>
      </trkpt>
      <trkpt lat="46.02338" lon="3.64744">
        <ele>617.56683</ele>
        <time>2011-10-02T09:24:10Z</time>
      </trkpt>
      <trkpt lat="46.02357" lon="3.6474">
        <ele>614.55334</ele>
        <time>2011-10-02T09:24:25Z</time>
      </trkpt>
      <trkpt lat="46.02376" lon="3.64746">
        <ele>612.29266</ele>
        <time>2011-10-02T09:24:38Z</time>
      </trkpt>
      <trkpt lat="46.02394" lon="3.64744">
        <ele>610.5134</ele>
        <time>2011-10-02T09:24:48Z</time>
      </trkpt>
      <trkpt lat="46.02411" lon="3.64735">
        <ele>608.3164</ele>
        <time>2011-10-02T09:25:34Z</time>
      </trkpt>
      <trkpt lat="46.02428" lon="3.64748">
        <ele>603.37274</ele>
        <time>2011-10-02T09:27:27Z</time>
      </trkpt>
      <trkpt lat="46.02446" lon="3.64753">
        <ele>601.08417</ele>
        <time>2011-10-02T09:27:46Z</time>
      </trkpt>
      <trkpt lat="46.02464" lon="3.64763">
        <ele>600.4221</ele>
        <time>2011-10-02T09:28:06Z</time>
      </trkpt>
      <trkpt lat="46.02451" lon="3.64783">
        <ele>600.00073</ele>
        <time>2011-10-02T09:28:28Z</time>
      </trkpt>
      <trkpt lat="46.02434" lon="3.64793">
        <ele>600</ele>
        <time>2011-10-02T09:28:58Z</time>
      </trkpt>
      <trkpt lat="46.02415" lon="3.64793">
        <ele>601.99927</ele>
        <time>2011-10-02T09:29:50Z</time>
      </trkpt>
      <trkpt lat="46.02473" lon="3.64776">
        <ele>602.9976</ele>
        <time>2011-10-02T09:30:45Z</time>
      </trkpt>
      <trkpt lat="46.02452" lon="3.64755">
        <ele>604</ele>
        <time>2011-10-02T09:34:08Z</time>
      </trkpt>
      <trkpt lat="46.02457" lon="3.6478">
        <ele>604</ele>
        <time>2011-10-02T09:35:01Z</time>
      </trkpt>
      <trkpt lat="46.02475" lon="3.64776">
        <ele>604</ele>
        <time>2011-10-02T09:35:52Z</time>
      </trkpt>
      <trkpt lat="46.02494" lon="3.64774">
        <ele>604.2373</ele>
        <time>2011-10-02T09:38:36Z</time>
      </trkpt>
      <trkpt lat="46.02475" lon="3.6477">
        <ele>602.2473</ele>
        <time>2011-10-02T09:40:30Z</time>
      </trkpt>
      <trkpt lat="46.02457" lon="3.64768">
        <ele>600</ele>
        <time>2011-10-02T09:42:09Z</time>
      </trkpt>
      <trkpt lat="46.02474" lon="3.64776">
        <ele>600.9976</ele>
        <time>2011-10-02T09:43:35Z</time>
      </trkpt>
      <trkpt lat="46.02456" lon="3.6477">
        <ele>598</ele>
        <time>2011-10-02T09:51:15Z</time>
      </trkpt>
      <trkpt lat="46.02441" lon="3.64755">
        <ele>596.9999</ele>
        <time>2011-10-02T10:04:49Z</time>
      </trkpt>
      <trkpt lat="46.02423" lon="3.64755">
        <ele>597.9976</ele>
        <time>2011-10-02T10:05:19Z</time>
      </trkpt>
      <trkpt lat="46.02409" lon="3.64735">
        <ele>597.178</ele>
        <time>2011-10-02T10:06:18Z</time>
      </trkpt>
      <trkpt lat="46.02398" lon="3.64757">
        <ele>596.0033</ele>
        <time>2011-10-02T10:06:43Z</time>
      </trkpt>
      <trkpt lat="46.02382" lon="3.6477">
        <ele>594.76</ele>
        <time>2011-10-02T10:07:54Z</time>
      </trkpt>
      <trkpt lat="46.02368" lon="3.64789">
        <ele>594.9968</ele>
        <time>2011-10-02T10:09:36Z</time>
      </trkpt>
      <trkpt lat="46.02351" lon="3.648">
        <ele>595.9822</ele>
        <time>2011-10-02T10:09:53Z</time>
      </trkpt>
      <trkpt lat="46.02338" lon="3.64821">
        <ele>595.99994</ele>
        <time>2011-10-02T10:10:13Z</time>
      </trkpt>
      <trkpt lat="46.02326" lon="3.64843">
        <ele>596.9683</ele>
        <time>2011-10-02T10:10:30Z</time>
      </trkpt>
      <trkpt lat="46.0231" lon="3.64856">
        <ele>596.99976</ele>
        <time>2011-10-02T10:10:47Z</time>
      </trkpt>
      <trkpt lat="46.02293" lon="3.64866">
        <ele>597</ele>
        <time>2011-10-02T10:11:05Z</time>
      </trkpt>
      <trkpt lat="46.02278" lon="3.64881">
        <ele>597.9683</ele>
        <time>2011-10-02T10:11:25Z</time>
      </trkpt>
      <trkpt lat="46.02262" lon="3.64894">
        <ele>599.6778</ele>
        <time>2011-10-02T10:11:43Z</time>
      </trkpt>
      <trkpt lat="46.02247" lon="3.64911">
        <ele>600.9419</ele>
        <time>2011-10-02T10:12:01Z</time>
      </trkpt>
      <trkpt lat="46.02232" lon="3.64926">
        <ele>601.9673</ele>
        <time>2011-10-02T10:12:15Z</time>
      </trkpt>
      <trkpt lat="46.02215" lon="3.64937">
        <ele>603.65924</ele>
        <time>2011-10-02T10:12:29Z</time>
      </trkpt>
      <trkpt lat="46.022" lon="3.64952">
        <ele>605.7144</ele>
        <time>2011-10-02T10:12:43Z</time>
      </trkpt>
      <trkpt lat="46.02187" lon="3.64971">
        <ele>608.4868</ele>
        <time>2011-10-02T10:12:59Z</time>
      </trkpt>
      <trkpt lat="46.02174" lon="3.64991">
        <ele>610.7113</ele>
        <time>2011-10-02T10:13:13Z</time>
      </trkpt>
      <trkpt lat="46.0216" lon="3.65008">
        <ele>612.8389</ele>
        <time>2011-10-02T10:13:28Z</time>
      </trkpt>
      <trkpt lat="46.02145" lon="3.65025">
        <ele>614.9429</ele>
        <time>2011-10-02T10:13:54Z</time>
      </trkpt>
      <trkpt lat="46.0213" lon="3.6504">
        <ele>617.8859</ele>
        <time>2011-10-02T10:14:23Z</time>
      </trkpt>
      <trkpt lat="46.02112" lon="3.65044">
        <ele>619.8187</ele>
        <time>2011-10-02T10:14:47Z</time>
      </trkpt>
      <trkpt lat="46.02095" lon="3.65055">
        <ele>620.8981</ele>
        <time>2011-10-02T10:15:03Z</time>
      </trkpt>
      <trkpt lat="46.02077" lon="3.65064">
        <ele>621.97614</ele>
        <time>2011-10-02T10:15:27Z</time>
      </trkpt>
      <trkpt lat="46.02059" lon="3.6507">
        <ele>621.99994</ele>
        <time>2011-10-02T10:15:48Z</time>
      </trkpt>
      <trkpt lat="46.02041" lon="3.65074">
        <ele>622</ele>
        <time>2011-10-02T10:16:08Z</time>
      </trkpt>
      <trkpt lat="46.02025" lon="3.65087">
        <ele>623.8565</ele>
        <time>2011-10-02T10:16:25Z</time>
      </trkpt>
      <trkpt lat="46.02008" lon="3.65096">
        <ele>624.89905</ele>
        <time>2011-10-02T10:16:43Z</time>
      </trkpt>
      <trkpt lat="46.01989" lon="3.651">
        <ele>626.658</ele>
        <time>2011-10-02T10:16:57Z</time>
      </trkpt>
      <trkpt lat="46.0197" lon="3.65104">
        <ele>630.1793</ele>
        <time>2011-10-02T10:17:11Z</time>
      </trkpt>
      <trkpt lat="46.01953" lon="3.65115">
        <ele>633.3983</ele>
        <time>2011-10-02T10:17:25Z</time>
      </trkpt>
      <trkpt lat="46.01936" lon="3.65126">
        <ele>635.9538</ele>
        <time>2011-10-02T10:17:42Z</time>
      </trkpt>
      <trkpt lat="46.01919" lon="3.65134">
        <ele>637.01245</ele>
        <time>2011-10-02T10:18:00Z</time>
      </trkpt>
      <trkpt lat="46.01904" lon="3.65149">
        <ele>640.683</ele>
        <time>2011-10-02T10:18:18Z</time>
      </trkpt>
      <trkpt lat="46.0189" lon="3.65167">
        <ele>644.23615</ele>
        <time>2011-10-02T10:18:37Z</time>
      </trkpt>
      <trkpt lat="46.01876" lon="3.65184">
        <ele>648.2877</ele>
        <time>2011-10-02T10:18:51Z</time>
      </trkpt>
      <trkpt lat="46.01862" lon="3.65201">
        <ele>652.53644</ele>
        <time>2011-10-02T10:19:08Z</time>
      </trkpt>
      <trkpt lat="46.01847" lon="3.65216">
        <ele>656.0747</ele>
        <time>2011-10-02T10:19:26Z</time>
      </trkpt>
      <trkpt lat="46.01833" lon="3.65233">
        <ele>658.6344</ele>
        <time>2011-10-02T10:19:43Z</time>
      </trkpt>
      <trkpt lat="46.0182" lon="3.65252">
        <ele>660.5003</ele>
        <time>2011-10-02T10:20:00Z</time>
      </trkpt>
      <trkpt lat="46.01805" lon="3.65268">
        <ele>661.98505</ele>
        <time>2011-10-02T10:20:20Z</time>
      </trkpt>
      <trkpt lat="46.0179" lon="3.65285">
        <ele>662.5781</ele>
        <time>2011-10-02T10:20:42Z</time>
      </trkpt>
      <trkpt lat="46.01773" lon="3.65293">
        <ele>662.9925</ele>
        <time>2011-10-02T10:20:56Z</time>
      </trkpt>
      <trkpt lat="46.01755" lon="3.65302">
        <ele>663.822</ele>
        <time>2011-10-02T10:21:16Z</time>
      </trkpt>
      <trkpt lat="46.01742" lon="3.65319">
        <ele>664.4343</ele>
        <time>2011-10-02T10:21:30Z</time>
      </trkpt>
      <trkpt lat="46.01724" lon="3.65332">
        <ele>666.35486</ele>
        <time>2011-10-02T10:21:45Z</time>
      </trkpt>
      <trkpt lat="46.01708" lon="3.65345">
        <ele>669.295</ele>
        <time>2011-10-02T10:22:06Z</time>
      </trkpt>
      <trkpt lat="46.01692" lon="3.65358">
        <ele>672.0204</ele>
        <time>2011-10-02T10:22:21Z</time>
      </trkpt>
      <trkpt lat="46.01673" lon="3.65364">
        <ele>674.58527</ele>
        <time>2011-10-02T10:22:34Z</time>
      </trkpt>
      <trkpt lat="46.01655" lon="3.65368">
        <ele>677.7179</ele>
        <time>2011-10-02T10:22:51Z</time>
      </trkpt>
      <trkpt lat="46.01637" lon="3.6536">
        <ele>683.242</ele>
        <time>2011-10-02T10:23:14Z</time>
      </trkpt>
      <trkpt lat="46.01621" lon="3.65345">
        <ele>686.4362</ele>
        <time>2011-10-02T10:23:29Z</time>
      </trkpt>
      <trkpt lat="46.01607" lon="3.65328">
        <ele>689.5772</ele>
        <time>2011-10-02T10:23:44Z</time>
      </trkpt>
      <trkpt lat="46.01595" lon="3.65306">
        <ele>694.5718</ele>
        <time>2011-10-02T10:24:07Z</time>
      </trkpt>
      <trkpt lat="46.01584" lon="3.65285">
        <ele>697.3688</ele>
        <time>2011-10-02T10:24:25Z</time>
      </trkpt>
      <trkpt lat="46.0157" lon="3.65268">
        <ele>698.9551</ele>
        <time>2011-10-02T10:24:44Z</time>
      </trkpt>
      <trkpt lat="46.01553" lon="3.65257">
        <ele>699.99756</ele>
        <time>2011-10-02T10:25:08Z</time>
      </trkpt>
      <trkpt lat="46.01536" lon="3.65246">
        <ele>700.5781</ele>
        <time>2011-10-02T10:25:25Z</time>
      </trkpt>
      <trkpt lat="46.01519" lon="3.65231">
        <ele>700.9944</ele>
        <time>2011-10-02T10:25:40Z</time>
      </trkpt>
      <trkpt lat="46.01504" lon="3.65214">
        <ele>701.9576</ele>
        <time>2011-10-02T10:25:52Z</time>
      </trkpt>
      <trkpt lat="46.01488" lon="3.65201">
        <ele>702.9819</ele>
        <time>2011-10-02T10:26:09Z</time>
      </trkpt>
      <trkpt lat="46.0147" lon="3.65199">
        <ele>703.822</ele>
        <time>2011-10-02T10:26:32Z</time>
      </trkpt>
      <trkpt lat="46.01452" lon="3.65199">
        <ele>705.74756</ele>
        <time>2011-10-02T10:26:48Z</time>
      </trkpt>
      <trkpt lat="46.01434" lon="3.65197">
        <ele>706.8919</ele>
        <time>2011-10-02T10:27:00Z</time>
      </trkpt>
      <trkpt lat="46.01414" lon="3.65195">
        <ele>707.88904</ele>
        <time>2011-10-02T10:27:08Z</time>
      </trkpt>
      <trkpt lat="46.01396" lon="3.65192">
        <ele>708.939</ele>
        <time>2011-10-02T10:27:19Z</time>
      </trkpt>
      <trkpt lat="46.01378" lon="3.6519">
        <ele>710.5595</ele>
        <time>2011-10-02T10:27:34Z</time>
      </trkpt>
      <trkpt lat="46.0136" lon="3.65184">
        <ele>711.8195</ele>
        <time>2011-10-02T10:27:52Z</time>
      </trkpt>
      <trkpt lat="46.01341" lon="3.65177">
        <ele>713.1923</ele>
        <time>2011-10-02T10:28:09Z</time>
      </trkpt>
      <trkpt lat="46.01325" lon="3.6519">
        <ele>719.9683</ele>
        <time>2011-10-02T10:30:06Z</time>
      </trkpt>
      <trkpt lat="46.01311" lon="3.65173">
        <ele>727.43726</ele>
        <time>2011-10-02T10:34:22Z</time>
      </trkpt>
      <trkpt lat="46.01294" lon="3.65162">
        <ele>728.5781</ele>
        <time>2011-10-02T10:35:06Z</time>
      </trkpt>
      <trkpt lat="46.01276" lon="3.6516">
        <ele>728.53876</ele>
        <time>2011-10-02T10:35:16Z</time>
      </trkpt>
      <trkpt lat="46.01258" lon="3.65156">
        <ele>728.72406</ele>
        <time>2011-10-02T10:35:25Z</time>
      </trkpt>
      <trkpt lat="46.01238" lon="3.65158">
        <ele>728.98444</ele>
        <time>2011-10-02T10:35:35Z</time>
      </trkpt>
      <trkpt lat="46.01221" lon="3.65167">
        <ele>729.9433</ele>
        <time>2011-10-02T10:35:48Z</time>
      </trkpt>
      <trkpt lat="46.01206" lon="3.65182">
        <ele>731.8032</ele>
        <time>2011-10-02T10:36:02Z</time>
      </trkpt>
      <trkpt lat="46.01188" lon="3.6519">
        <ele>734.5881</ele>
        <time>2011-10-02T10:36:17Z</time>
      </trkpt>
      <trkpt lat="46.01171" lon="3.65199">
        <ele>737.4469</ele>
        <time>2011-10-02T10:36:31Z</time>
      </trkpt>
      <trkpt lat="46.01156" lon="3.65214">
        <ele>740.4056</ele>
        <time>2011-10-02T10:36:46Z</time>
      </trkpt>
      <trkpt lat="46.01141" lon="3.65229">
        <ele>743.53766</ele>
        <time>2011-10-02T10:36:59Z</time>
      </trkpt>
      <trkpt lat="46.01128" lon="3.65248">
        <ele>746.57654</ele>
        <time>2011-10-02T10:37:13Z</time>
      </trkpt>
      <trkpt lat="46.01115" lon="3.65268">
        <ele>749.723</ele>
        <time>2011-10-02T10:37:31Z</time>
      </trkpt>
      <trkpt lat="46.011" lon="3.65285">
        <ele>750.96625</ele>
        <time>2011-10-02T10:37:48Z</time>
      </trkpt>
      <trkpt lat="46.01083" lon="3.653">
        <ele>752.2396</ele>
        <time>2011-10-02T10:38:04Z</time>
      </trkpt>
      <trkpt lat="46.01067" lon="3.65313">
        <ele>753.23645</ele>
        <time>2011-10-02T10:38:18Z</time>
      </trkpt>
      <trkpt lat="46.0105" lon="3.65323">
        <ele>754.2398</ele>
        <time>2011-10-02T10:38:33Z</time>
      </trkpt>
      <trkpt lat="46.01032" lon="3.65334">
        <ele>754.9924</ele>
        <time>2011-10-02T10:38:49Z</time>
      </trkpt>
      <trkpt lat="46.01015" lon="3.65345">
        <ele>755.9899</ele>
        <time>2011-10-02T10:39:06Z</time>
      </trkpt>
      <trkpt lat="46.00998" lon="3.65355">
        <ele>756.9434</ele>
        <time>2011-10-02T10:39:19Z</time>
      </trkpt>
      <trkpt lat="46.00981" lon="3.65366">
        <ele>758.64</ele>
        <time>2011-10-02T10:39:32Z</time>
      </trkpt>
      <trkpt lat="46.00964" lon="3.65379">
        <ele>760.7262</ele>
        <time>2011-10-02T10:39:47Z</time>
      </trkpt>
      <trkpt lat="46.00948" lon="3.65394">
        <ele>762.5322</ele>
        <time>2011-10-02T10:40:02Z</time>
      </trkpt>
      <trkpt lat="46.00935" lon="3.65413">
        <ele>763.91864</ele>
        <time>2011-10-02T10:40:17Z</time>
      </trkpt>
      <trkpt lat="46.0092" lon="3.65431">
        <ele>765.81116</ele>
        <time>2011-10-02T10:40:33Z</time>
      </trkpt>
      <trkpt lat="46.00905" lon="3.65448">
        <ele>766.9235</ele>
        <time>2011-10-02T10:40:50Z</time>
      </trkpt>
      <trkpt lat="46.0089" lon="3.65463">
        <ele>766.03064</ele>
        <time>2011-10-02T10:41:05Z</time>
      </trkpt>
      <trkpt lat="46.00874" lon="3.65476">
        <ele>766.0002</ele>
        <time>2011-10-02T10:41:23Z</time>
      </trkpt>
      <trkpt lat="46.00857" lon="3.65489">
        <ele>765.0751</ele>
        <time>2011-10-02T10:41:41Z</time>
      </trkpt>
      <trkpt lat="46.00842" lon="3.65506">
        <ele>765.00073</ele>
        <time>2011-10-02T10:41:57Z</time>
      </trkpt>
      <trkpt lat="46.00827" lon="3.65521">
        <ele>765</ele>
        <time>2011-10-02T10:42:14Z</time>
      </trkpt>
      <trkpt lat="46.0081" lon="3.65531">
        <ele>765.8999</ele>
        <time>2011-10-02T10:42:28Z</time>
      </trkpt>
      <trkpt lat="46.00793" lon="3.65542">
        <ele>765.99866</ele>
        <time>2011-10-02T10:42:43Z</time>
      </trkpt>
      <trkpt lat="46.00776" lon="3.65553">
        <ele>766.8665</ele>
        <time>2011-10-02T10:43:00Z</time>
      </trkpt>
      <trkpt lat="46.00759" lon="3.65564">
        <ele>767.6826</ele>
        <time>2011-10-02T10:43:17Z</time>
      </trkpt>
      <trkpt lat="46.00739" lon="3.65566">
        <ele>767.9866</ele>
        <time>2011-10-02T10:43:28Z</time>
      </trkpt>
      <trkpt lat="46.00721" lon="3.65568">
        <ele>767.9999</ele>
        <time>2011-10-02T10:43:44Z</time>
      </trkpt>
      <trkpt lat="46.00703" lon="3.65577">
        <ele>768.6836</ele>
        <time>2011-10-02T10:44:03Z</time>
      </trkpt>
      <trkpt lat="46.00685" lon="3.65579">
        <ele>768.97626</ele>
        <time>2011-10-02T10:44:12Z</time>
      </trkpt>
      <trkpt lat="46.00667" lon="3.65583">
        <ele>769.24866</ele>
        <time>2011-10-02T10:44:22Z</time>
      </trkpt>
      <trkpt lat="46.00648" lon="3.65587">
        <ele>769.96826</ele>
        <time>2011-10-02T10:44:33Z</time>
      </trkpt>
      <trkpt lat="46.0063" lon="3.65594">
        <ele>770.57715</ele>
        <time>2011-10-02T10:44:45Z</time>
      </trkpt>
      <trkpt lat="46.00614" lon="3.65607">
        <ele>770.9958</ele>
        <time>2011-10-02T10:45:01Z</time>
      </trkpt>
      <trkpt lat="46.00601" lon="3.65626">
        <ele>771.9821</ele>
        <time>2011-10-02T10:45:15Z</time>
      </trkpt>
      <trkpt lat="46.00592" lon="3.65649">
        <ele>772.9431</ele>
        <time>2011-10-02T10:45:27Z</time>
      </trkpt>
      <trkpt lat="46.00584" lon="3.65673">
        <ele>773.9749</ele>
        <time>2011-10-02T10:45:40Z</time>
      </trkpt>
      <trkpt lat="46.00574" lon="3.65697">
        <ele>775.2179</ele>
        <time>2011-10-02T10:45:54Z</time>
      </trkpt>
      <trkpt lat="46.00567" lon="3.65722">
        <ele>775.9861</ele>
        <time>2011-10-02T10:46:08Z</time>
      </trkpt>
      <trkpt lat="46.00561" lon="3.65748">
        <ele>776.92474</ele>
        <time>2011-10-02T10:46:23Z</time>
      </trkpt>
      <trkpt lat="46.00555" lon="3.65774">
        <ele>776.99866</ele>
        <time>2011-10-02T10:46:37Z</time>
      </trkpt>
      <trkpt lat="46.00551" lon="3.658">
        <ele>778</ele>
        <time>2011-10-02T10:47:25Z</time>
      </trkpt>
      <trkpt lat="46.00549" lon="3.65825">
        <ele>778.0751</ele>
        <time>2011-10-02T10:55:02Z</time>
      </trkpt>
      <trkpt lat="46.00553" lon="3.65851">
        <ele>778.82245</ele>
        <time>2011-10-02T10:55:20Z</time>
      </trkpt>
      <trkpt lat="46.00555" lon="3.65879">
        <ele>779.8999</ele>
        <time>2011-10-02T10:55:54Z</time>
      </trkpt>
      <trkpt lat="46.00557" lon="3.65905">
        <ele>779.9996</ele>
        <time>2011-10-02T10:56:13Z</time>
      </trkpt>
      <trkpt lat="46.00559" lon="3.65931">
        <ele>780.9822</ele>
        <time>2011-10-02T10:56:27Z</time>
      </trkpt>
      <trkpt lat="46.00559" lon="3.65958">
        <ele>781.98645</ele>
        <time>2011-10-02T10:56:43Z</time>
      </trkpt>
      <trkpt lat="46.00559" lon="3.65986">
        <ele>783.42737</ele>
        <time>2011-10-02T10:57:00Z</time>
      </trkpt>
      <trkpt lat="46.00557" lon="3.66014">
        <ele>784.43176</ele>
        <time>2011-10-02T10:57:16Z</time>
      </trkpt>
      <trkpt lat="46.00553" lon="3.6604">
        <ele>784.99243</ele>
        <time>2011-10-02T10:57:31Z</time>
      </trkpt>
      <trkpt lat="46.00546" lon="3.66066">
        <ele>785.5781</ele>
        <time>2011-10-02T10:58:08Z</time>
      </trkpt>
      <trkpt lat="46.00541" lon="3.66091">
        <ele>785.9958</ele>
        <time>2011-10-02T10:58:24Z</time>
      </trkpt>
      <trkpt lat="46.00533" lon="3.66115">
        <ele>786.76263</ele>
        <time>2011-10-02T10:58:41Z</time>
      </trkpt>
      <trkpt lat="46.00526" lon="3.66141">
        <ele>788.36005</ele>
        <time>2011-10-02T10:58:57Z</time>
      </trkpt>
      <trkpt lat="46.00518" lon="3.66164">
        <ele>790.18726</ele>
        <time>2011-10-02T10:59:13Z</time>
      </trkpt>
      <trkpt lat="46.00511" lon="3.66188">
        <ele>791.56366</ele>
        <time>2011-10-02T10:59:27Z</time>
      </trkpt>
      <trkpt lat="46.005" lon="3.66212">
        <ele>792.75684</ele>
        <time>2011-10-02T10:59:42Z</time>
      </trkpt>
      <trkpt lat="46.00489" lon="3.66235">
        <ele>792.99817</ele>
        <time>2011-10-02T10:59:59Z</time>
      </trkpt>
      <trkpt lat="46.00479" lon="3.66257">
        <ele>793.9997</ele>
        <time>2011-10-02T11:00:28Z</time>
      </trkpt>
      <trkpt lat="46.00469" lon="3.6628">
        <ele>794.95776</ele>
        <time>2011-10-02T11:00:44Z</time>
      </trkpt>
      <trkpt lat="46.00457" lon="3.66302">
        <ele>795.94336</ele>
        <time>2011-10-02T11:01:01Z</time>
      </trkpt>
      <trkpt lat="46.00444" lon="3.66321">
        <ele>796.8215</ele>
        <time>2011-10-02T11:01:17Z</time>
      </trkpt>
      <trkpt lat="46.00433" lon="3.66343">
        <ele>797.6812</ele>
        <time>2011-10-02T11:01:32Z</time>
      </trkpt>
      <trkpt lat="46.00422" lon="3.66364">
        <ele>797.9968</ele>
        <time>2011-10-02T11:01:48Z</time>
      </trkpt>
      <trkpt lat="46.00409" lon="3.66383">
        <ele>798.24994</ele>
        <time>2011-10-02T11:02:03Z</time>
      </trkpt>
      <trkpt lat="46.00395" lon="3.66403">
        <ele>798.99</ele>
        <time>2011-10-02T11:02:18Z</time>
      </trkpt>
      <trkpt lat="46.00382" lon="3.66422">
        <ele>798.99994</ele>
        <time>2011-10-02T11:02:35Z</time>
      </trkpt>
      <trkpt lat="46.00369" lon="3.66441">
        <ele>799</ele>
        <time>2011-10-02T11:02:51Z</time>
      </trkpt>
      <trkpt lat="46.00354" lon="3.66456">
        <ele>799</ele>
        <time>2011-10-02T11:03:06Z</time>
      </trkpt>
      <trkpt lat="46.00336" lon="3.66458">
        <ele>799.9249</ele>
        <time>2011-10-02T11:03:28Z</time>
      </trkpt>
      <trkpt lat="46.00319" lon="3.6645">
        <ele>799.9976</ele>
        <time>2011-10-02T11:03:40Z</time>
      </trkpt>
      <trkpt lat="46.00301" lon="3.66443">
        <ele>800.43744</ele>
        <time>2011-10-02T11:03:52Z</time>
      </trkpt>
      <trkpt lat="46.00282" lon="3.66448">
        <ele>800.9822</ele>
        <time>2011-10-02T11:04:04Z</time>
      </trkpt>
      <trkpt lat="46.00264" lon="3.6645">
        <ele>800.99976</ele>
        <time>2011-10-02T11:04:19Z</time>
      </trkpt>
      <trkpt lat="46.00246" lon="3.66456">
        <ele>801.95776</ele>
        <time>2011-10-02T11:04:36Z</time>
      </trkpt>
      <trkpt lat="46.00228" lon="3.66463">
        <ele>803.7489</ele>
        <time>2011-10-02T11:04:52Z</time>
      </trkpt>
      <trkpt lat="46.00211" lon="3.66471">
        <ele>804.93774</ele>
        <time>2011-10-02T11:05:05Z</time>
      </trkpt>
      <trkpt lat="46.00193" lon="3.66482">
        <ele>806.4186</ele>
        <time>2011-10-02T11:05:19Z</time>
      </trkpt>
      <trkpt lat="46.00175" lon="3.66488">
        <ele>807.2396</ele>
        <time>2011-10-02T11:05:33Z</time>
      </trkpt>
      <trkpt lat="46.00157" lon="3.66488">
        <ele>808.42737</ele>
        <time>2011-10-02T11:05:48Z</time>
      </trkpt>
      <trkpt lat="46.00139" lon="3.66484">
        <ele>809.75507</ele>
        <time>2011-10-02T11:06:03Z</time>
      </trkpt>
      <trkpt lat="46.0012" lon="3.66478">
        <ele>810.9412</ele>
        <time>2011-10-02T11:06:19Z</time>
      </trkpt>
      <trkpt lat="46.00102" lon="3.66469">
        <ele>812.5595</ele>
        <time>2011-10-02T11:06:34Z</time>
      </trkpt>
      <trkpt lat="46.00084" lon="3.66463">
        <ele>813.5737</ele>
        <time>2011-10-02T11:06:50Z</time>
      </trkpt>
      <trkpt lat="46.00067" lon="3.66452">
        <ele>816.7527</ele>
        <time>2011-10-02T11:10:12Z</time>
      </trkpt>
      <trkpt lat="46.00049" lon="3.66448">
        <ele>817.68176</ele>
        <time>2011-10-02T11:10:29Z</time>
      </trkpt>
      <trkpt lat="46.0003" lon="3.66443">
        <ele>817.9957</ele>
        <time>2011-10-02T11:10:44Z</time>
      </trkpt>
      <trkpt lat="46.00012" lon="3.66439">
        <ele>817.99994</ele>
        <time>2011-10-02T11:10:59Z</time>
      </trkpt>
      <trkpt lat="45.99994" lon="3.66433">
        <ele>818</ele>
        <time>2011-10-02T11:11:15Z</time>
      </trkpt>
      <trkpt lat="45.99976" lon="3.66426">
        <ele>818.822</ele>
        <time>2011-10-02T11:11:31Z</time>
      </trkpt>
      <trkpt lat="45.99957" lon="3.66426">
        <ele>818.9968</ele>
        <time>2011-10-02T11:11:45Z</time>
      </trkpt>
      <trkpt lat="45.99939" lon="3.66431">
        <ele>818.99994</ele>
        <time>2011-10-02T11:12:00Z</time>
      </trkpt>
      <trkpt lat="45.99921" lon="3.66437">
        <ele>818.1001</ele>
        <time>2011-10-02T11:12:13Z</time>
      </trkpt>
      <trkpt lat="45.99903" lon="3.66443">
        <ele>818.0018</ele>
        <time>2011-10-02T11:12:27Z</time>
      </trkpt>
      <trkpt lat="45.99884" lon="3.6645">
        <ele>818.00006</ele>
        <time>2011-10-02T11:12:41Z</time>
      </trkpt>
      <trkpt lat="45.99866" lon="3.66454">
        <ele>817.1001</ele>
        <time>2011-10-02T11:12:56Z</time>
      </trkpt>
      <trkpt lat="45.99849" lon="3.66463">
        <ele>817.0024</ele>
        <time>2011-10-02T11:13:09Z</time>
      </trkpt>
      <trkpt lat="45.99832" lon="3.66471">
        <ele>817.00006</ele>
        <time>2011-10-02T11:13:24Z</time>
      </trkpt>
      <trkpt lat="45.99817" lon="3.66488">
        <ele>817</ele>
        <time>2011-10-02T11:13:40Z</time>
      </trkpt>
      <trkpt lat="45.99801" lon="3.66501">
        <ele>817</ele>
        <time>2011-10-02T11:13:54Z</time>
      </trkpt>
      <trkpt lat="45.99784" lon="3.6651">
        <ele>817</ele>
        <time>2011-10-02T11:14:07Z</time>
      </trkpt>
      <trkpt lat="45.99766" lon="3.66521">
        <ele>817</ele>
        <time>2011-10-02T11:14:20Z</time>
      </trkpt>
      <trkpt lat="45.99749" lon="3.66529">
        <ele>817</ele>
        <time>2011-10-02T11:14:35Z</time>
      </trkpt>
      <trkpt lat="45.99731" lon="3.66531">
        <ele>817</ele>
        <time>2011-10-02T11:14:52Z</time>
      </trkpt>
      <trkpt lat="45.99713" lon="3.66536">
        <ele>817</ele>
        <time>2011-10-02T11:15:09Z</time>
      </trkpt>
      <trkpt lat="45.99694" lon="3.66538">
        <ele>816.178</ele>
        <time>2011-10-02T11:15:23Z</time>
      </trkpt>
      <trkpt lat="45.99676" lon="3.66538">
        <ele>816.0032</ele>
        <time>2011-10-02T11:15:37Z</time>
      </trkpt>
      <trkpt lat="45.99658" lon="3.66536">
        <ele>816.00006</ele>
        <time>2011-10-02T11:15:52Z</time>
      </trkpt>
      <trkpt lat="45.9964" lon="3.66534">
        <ele>815.1001</ele>
        <time>2011-10-02T11:16:11Z</time>
      </trkpt>
      <trkpt lat="45.99622" lon="3.66529">
        <ele>815.00134</ele>
        <time>2011-10-02T11:16:26Z</time>
      </trkpt>
      <trkpt lat="45.99603" lon="3.66527">
        <ele>814.2373</ele>
        <time>2011-10-02T11:16:40Z</time>
      </trkpt>
      <trkpt lat="45.99585" lon="3.66527">
        <ele>814.0032</ele>
        <time>2011-10-02T11:16:55Z</time>
      </trkpt>
      <trkpt lat="45.99567" lon="3.66527">
        <ele>814.00006</ele>
        <time>2011-10-02T11:17:09Z</time>
      </trkpt>
      <trkpt lat="45.99549" lon="3.66531">
        <ele>813.4219</ele>
        <time>2011-10-02T11:17:26Z</time>
      </trkpt>
      <trkpt lat="45.99529" lon="3.66534">
        <ele>813.0075</ele>
        <time>2011-10-02T11:17:40Z</time>
      </trkpt>
      <trkpt lat="45.99511" lon="3.66531">
        <ele>812.1336</ele>
        <time>2011-10-02T11:17:55Z</time>
      </trkpt>
      <trkpt lat="45.99493" lon="3.66525">
        <ele>811.42365</ele>
        <time>2011-10-02T11:18:10Z</time>
      </trkpt>
      <trkpt lat="45.99475" lon="3.66521">
        <ele>810.42615</ele>
        <time>2011-10-02T11:18:26Z</time>
      </trkpt>
      <trkpt lat="45.99456" lon="3.66512">
        <ele>810.0043</ele>
        <time>2011-10-02T11:18:42Z</time>
      </trkpt>
      <trkpt lat="45.99438" lon="3.66506">
        <ele>810.00006</ele>
        <time>2011-10-02T11:18:58Z</time>
      </trkpt>
      <trkpt lat="45.9942" lon="3.66503">
        <ele>810.97626</ele>
        <time>2011-10-02T11:19:17Z</time>
      </trkpt>
      <trkpt lat="45.99402" lon="3.66497">
        <ele>812.5357</ele>
        <time>2011-10-02T11:19:34Z</time>
      </trkpt>
      <trkpt lat="45.99383" lon="3.66491">
        <ele>814.6493</ele>
        <time>2011-10-02T11:19:52Z</time>
      </trkpt>
      <trkpt lat="45.99365" lon="3.66488">
        <ele>816.7547</ele>
        <time>2011-10-02T11:20:15Z</time>
      </trkpt>
      <trkpt lat="45.99348" lon="3.6648">
        <ele>819.31714</ele>
        <time>2011-10-02T11:20:31Z</time>
      </trkpt>
      <trkpt lat="45.99331" lon="3.66471">
        <ele>821.43365</ele>
        <time>2011-10-02T11:20:55Z</time>
      </trkpt>
      <trkpt lat="45.99313" lon="3.66461">
        <ele>823.8063</ele>
        <time>2011-10-02T11:21:14Z</time>
      </trkpt>
      <trkpt lat="45.99294" lon="3.66454">
        <ele>825.9317</ele>
        <time>2011-10-02T11:21:30Z</time>
      </trkpt>
      <trkpt lat="45.99276" lon="3.66446">
        <ele>826.86487</ele>
        <time>2011-10-02T11:21:43Z</time>
      </trkpt>
      <trkpt lat="45.99258" lon="3.66443">
        <ele>826.9924</ele>
        <time>2011-10-02T11:21:53Z</time>
      </trkpt>
      <trkpt lat="45.9924" lon="3.66443">
        <ele>826.17755</ele>
        <time>2011-10-02T11:22:03Z</time>
      </trkpt>
      <trkpt lat="45.99225" lon="3.66428">
        <ele>826.001</ele>
        <time>2011-10-02T11:22:21Z</time>
      </trkpt>
      <trkpt lat="45.99211" lon="3.66411">
        <ele>827.86334</ele>
        <time>2011-10-02T11:22:42Z</time>
      </trkpt>
      <trkpt lat="45.99195" lon="3.66424">
        <ele>828.94366</ele>
        <time>2011-10-02T11:23:18Z</time>
      </trkpt>
      <trkpt lat="45.99176" lon="3.66418">
        <ele>829.8216</ele>
        <time>2011-10-02T11:23:35Z</time>
      </trkpt>
      <trkpt lat="45.99158" lon="3.6642">
        <ele>830.57574</ele>
        <time>2011-10-02T11:23:50Z</time>
      </trkpt>
      <trkpt lat="45.99142" lon="3.66407">
        <ele>832.78796</ele>
        <time>2011-10-02T11:24:08Z</time>
      </trkpt>
      <trkpt lat="45.99125" lon="3.66394">
        <ele>835.9993</ele>
        <time>2011-10-02T11:24:47Z</time>
      </trkpt>
      <trkpt lat="45.99111" lon="3.66377">
        <ele>838.8404</ele>
        <time>2011-10-02T11:25:08Z</time>
      </trkpt>
      <trkpt lat="45.99098" lon="3.66355">
        <ele>841.2924</ele>
        <time>2011-10-02T11:25:24Z</time>
      </trkpt>
      <trkpt lat="45.99085" lon="3.66336">
        <ele>843.9077</ele>
        <time>2011-10-02T11:25:35Z</time>
      </trkpt>
      <trkpt lat="45.99072" lon="3.66317">
        <ele>847.3878</ele>
        <time>2011-10-02T11:25:50Z</time>
      </trkpt>
      <trkpt lat="45.99059" lon="3.66297">
        <ele>851.7091</ele>
        <time>2011-10-02T11:26:04Z</time>
      </trkpt>
      <trkpt lat="45.99048" lon="3.66276">
        <ele>855.47723</ele>
        <time>2011-10-02T11:26:17Z</time>
      </trkpt>
      <trkpt lat="45.99035" lon="3.66255">
        <ele>860.44165</ele>
        <time>2011-10-02T11:26:41Z</time>
      </trkpt>
      <trkpt lat="45.99022" lon="3.66233">
        <ele>862.37885</ele>
        <time>2011-10-02T11:27:00Z</time>
      </trkpt>
      <trkpt lat="45.99005" lon="3.66225">
        <ele>862.98895</ele>
        <time>2011-10-02T11:27:14Z</time>
      </trkpt>
      <trkpt lat="45.98986" lon="3.66229">
        <ele>865.9822</ele>
        <time>2011-10-02T11:28:30Z</time>
      </trkpt>
      <trkpt lat="45.9897" lon="3.66214">
        <ele>868.76</ele>
        <time>2011-10-02T11:28:52Z</time>
      </trkpt>
      <trkpt lat="45.98966" lon="3.66188">
        <ele>871.53815</ele>
        <time>2011-10-02T11:29:12Z</time>
      </trkpt>
      <trkpt lat="45.98964" lon="3.66162">
        <ele>874.0981</ele>
        <time>2011-10-02T11:29:35Z</time>
      </trkpt>
      <trkpt lat="45.98961" lon="3.66137">
        <ele>877.12823</ele>
        <time>2011-10-02T11:29:54Z</time>
      </trkpt>
      <trkpt lat="45.98961" lon="3.66109">
        <ele>878.5413</ele>
        <time>2011-10-02T11:30:05Z</time>
      </trkpt>
      <trkpt lat="45.98963" lon="3.66083">
        <ele>878.9855</ele>
        <time>2011-10-02T11:30:17Z</time>
      </trkpt>
      <trkpt lat="45.98962" lon="3.66055">
        <ele>878.9995</ele>
        <time>2011-10-02T11:30:29Z</time>
      </trkpt>
      <trkpt lat="45.9895" lon="3.66034">
        <ele>879.822</ele>
        <time>2011-10-02T11:30:39Z</time>
      </trkpt>
      <trkpt lat="45.9894" lon="3.6601">
        <ele>880.8609</ele>
        <time>2011-10-02T11:30:51Z</time>
      </trkpt>
      <trkpt lat="45.98953" lon="3.66029">
        <ele>885.23663</ele>
        <time>2011-10-02T11:32:43Z</time>
      </trkpt>
      <trkpt lat="45.98938" lon="3.66012">
        <ele>885.99426</ele>
        <time>2011-10-02T11:33:00Z</time>
      </trkpt>
      <trkpt lat="45.98947" lon="3.66036">
        <ele>889.40015</ele>
        <time>2011-10-02T11:35:05Z</time>
      </trkpt>
      <trkpt lat="45.98964" lon="3.66027">
        <ele>894.4389</ele>
        <time>2011-10-02T11:35:19Z</time>
      </trkpt>
      <trkpt lat="45.98952" lon="3.66006">
        <ele>903.98175</ele>
        <time>2011-10-02T11:37:38Z</time>
      </trkpt>
      <trkpt lat="45.98938" lon="3.66023">
        <ele>903.9997</ele>
        <time>2011-10-02T11:40:03Z</time>
      </trkpt>
      <trkpt lat="45.9892" lon="3.66016">
        <ele>902.1002</ele>
        <time>2011-10-02T11:51:07Z</time>
      </trkpt>
      <trkpt lat="45.98904" lon="3.66004">
        <ele>900.0441</ele>
        <time>2011-10-02T11:51:30Z</time>
      </trkpt>
      <trkpt lat="45.98889" lon="3.65988">
        <ele>898.01416</ele>
        <time>2011-10-02T11:51:56Z</time>
      </trkpt>
      <trkpt lat="45.98873" lon="3.65973">
        <ele>897.0032</ele>
        <time>2011-10-02T11:52:18Z</time>
      </trkpt>
      <trkpt lat="45.98857" lon="3.65961">
        <ele>896.0032</ele>
        <time>2011-10-02T11:52:41Z</time>
      </trkpt>
      <trkpt lat="45.98838" lon="3.65954">
        <ele>896.39813</ele>
        <time>2011-10-02T11:53:00Z</time>
      </trkpt>
      <trkpt lat="45.98819" lon="3.65956">
        <ele>895.4443</ele>
        <time>2011-10-02T11:53:10Z</time>
      </trkpt>
      <trkpt lat="45.98801" lon="3.65961">
        <ele>893.51575</ele>
        <time>2011-10-02T11:53:21Z</time>
      </trkpt>
      <trkpt lat="45.98784" lon="3.65969">
        <ele>890.9866</ele>
        <time>2011-10-02T11:53:33Z</time>
      </trkpt>
      <trkpt lat="45.98766" lon="3.65978">
        <ele>888.5756</ele>
        <time>2011-10-02T11:53:53Z</time>
      </trkpt>
      <trkpt lat="45.9875" lon="3.65991">
        <ele>886.3619</ele>
        <time>2011-10-02T11:54:11Z</time>
      </trkpt>
      <trkpt lat="45.98732" lon="3.65997">
        <ele>884.13403</ele>
        <time>2011-10-02T11:54:39Z</time>
      </trkpt>
      <trkpt lat="45.98714" lon="3.66004">
        <ele>881.3837</ele>
        <time>2011-10-02T11:54:56Z</time>
      </trkpt>
      <trkpt lat="45.98696" lon="3.66008">
        <ele>879.15515</ele>
        <time>2011-10-02T11:55:12Z</time>
      </trkpt>
      <trkpt lat="45.98677" lon="3.66014">
        <ele>876.27264</ele>
        <time>2011-10-02T11:55:32Z</time>
      </trkpt>
      <trkpt lat="45.98659" lon="3.66016">
        <ele>873.8405</ele>
        <time>2011-10-02T11:55:49Z</time>
      </trkpt>
      <trkpt lat="45.98641" lon="3.66016">
        <ele>871.145</ele>
        <time>2011-10-02T11:56:11Z</time>
      </trkpt>
      <trkpt lat="45.98623" lon="3.66016">
        <ele>869.7533</ele>
        <time>2011-10-02T11:56:35Z</time>
      </trkpt>
      <trkpt lat="45.98604" lon="3.66012">
        <ele>869.0057</ele>
        <time>2011-10-02T11:56:52Z</time>
      </trkpt>
      <trkpt lat="45.98586" lon="3.66008">
        <ele>868.07513</ele>
        <time>2011-10-02T11:57:07Z</time>
      </trkpt>
      <trkpt lat="45.98569" lon="3.65999">
        <ele>868.001</ele>
        <time>2011-10-02T11:57:22Z</time>
      </trkpt>
      <trkpt lat="45.9855" lon="3.65993">
        <ele>868</ele>
        <time>2011-10-02T11:57:36Z</time>
      </trkpt>
      <trkpt lat="45.98531" lon="3.65995">
        <ele>867.75</ele>
        <time>2011-10-02T11:57:50Z</time>
      </trkpt>
      <trkpt lat="45.98514" lon="3.66006">
        <ele>865.1478</ele>
        <time>2011-10-02T11:58:13Z</time>
      </trkpt>
      <trkpt lat="45.98497" lon="3.66014">
        <ele>863.108</ele>
        <time>2011-10-02T11:58:34Z</time>
      </trkpt>
      <trkpt lat="45.98482" lon="3.66031">
        <ele>861.6062</ele>
        <time>2011-10-02T11:58:49Z</time>
      </trkpt>
      <trkpt lat="45.98469" lon="3.66051">
        <ele>859.4059</ele>
        <time>2011-10-02T11:59:02Z</time>
      </trkpt>
      <trkpt lat="45.9846" lon="3.66074">
        <ele>855.2896</ele>
        <time>2011-10-02T11:59:15Z</time>
      </trkpt>
      <trkpt lat="45.9845" lon="3.66098">
        <ele>848.17316</ele>
        <time>2011-10-02T11:59:32Z</time>
      </trkpt>
      <trkpt lat="45.98444" lon="3.66124">
        <ele>841.57715</ele>
        <time>2011-10-02T11:59:54Z</time>
      </trkpt>
      <trkpt lat="45.98438" lon="3.66149">
        <ele>838.16473</ele>
        <time>2011-10-02T12:00:14Z</time>
      </trkpt>
      <trkpt lat="45.98427" lon="3.66171">
        <ele>835.33575</ele>
        <time>2011-10-02T12:00:37Z</time>
      </trkpt>
      <trkpt lat="45.98416" lon="3.66192">
        <ele>833.25653</ele>
        <time>2011-10-02T12:00:56Z</time>
      </trkpt>
      <trkpt lat="45.98397" lon="3.66199">
        <ele>829.50165</ele>
        <time>2011-10-02T12:01:29Z</time>
      </trkpt>
      <trkpt lat="45.98379" lon="3.66197">
        <ele>827.11505</ele>
        <time>2011-10-02T12:01:49Z</time>
      </trkpt>
      <trkpt lat="45.98361" lon="3.66194">
        <ele>825.7636</ele>
        <time>2011-10-02T12:02:10Z</time>
      </trkpt>
      <trkpt lat="45.98343" lon="3.66197">
        <ele>819.90753</ele>
        <time>2011-10-02T12:03:23Z</time>
      </trkpt>
      <trkpt lat="45.98324" lon="3.66199">
        <ele>817.6086</ele>
        <time>2011-10-02T12:03:42Z</time>
      </trkpt>
      <trkpt lat="45.98306" lon="3.66199">
        <ele>816.2434</ele>
        <time>2011-10-02T12:03:58Z</time>
      </trkpt>
      <trkpt lat="45.98288" lon="3.66203">
        <ele>816.9846</ele>
        <time>2011-10-02T12:04:14Z</time>
      </trkpt>
      <trkpt lat="45.98272" lon="3.66216">
        <ele>816.9998</ele>
        <time>2011-10-02T12:04:29Z</time>
      </trkpt>
      <trkpt lat="45.98258" lon="3.66235">
        <ele>816.178</ele>
        <time>2011-10-02T12:04:43Z</time>
      </trkpt>
      <trkpt lat="45.98249" lon="3.66259">
        <ele>814.0327</ele>
        <time>2011-10-02T12:04:57Z</time>
      </trkpt>
      <trkpt lat="45.98243" lon="3.66285">
        <ele>810.4666</ele>
        <time>2011-10-02T12:05:11Z</time>
      </trkpt>
      <trkpt lat="45.98239" lon="3.6631">
        <ele>806.48486</ele>
        <time>2011-10-02T12:05:25Z</time>
      </trkpt>
      <trkpt lat="45.98233" lon="3.66336">
        <ele>803.46124</ele>
        <time>2011-10-02T12:05:44Z</time>
      </trkpt>
      <trkpt lat="45.98229" lon="3.66362">
        <ele>799.08167</ele>
        <time>2011-10-02T12:07:48Z</time>
      </trkpt>
      <trkpt lat="45.98219" lon="3.66385">
        <ele>799.68506</ele>
        <time>2011-10-02T12:08:02Z</time>
      </trkpt>
      <trkpt lat="45.9821" lon="3.66409">
        <ele>802.3704</ele>
        <time>2011-10-02T12:08:23Z</time>
      </trkpt>
      <trkpt lat="45.98199" lon="3.66431">
        <ele>803.94104</ele>
        <time>2011-10-02T12:08:42Z</time>
      </trkpt>
      <trkpt lat="45.98183" lon="3.66443">
        <ele>803.9997</ele>
        <time>2011-10-02T12:09:00Z</time>
      </trkpt>
      <trkpt lat="45.98166" lon="3.66454">
        <ele>804</ele>
        <time>2011-10-02T12:09:21Z</time>
      </trkpt>
      <trkpt lat="45.98146" lon="3.66452">
        <ele>804.7627</ele>
        <time>2011-10-02T12:09:34Z</time>
      </trkpt>
      <trkpt lat="45.98129" lon="3.66443">
        <ele>805.7603</ele>
        <time>2011-10-02T12:09:50Z</time>
      </trkpt>
      <trkpt lat="45.98112" lon="3.66433">
        <ele>805.9976</ele>
        <time>2011-10-02T12:10:06Z</time>
      </trkpt>
      <trkpt lat="45.98095" lon="3.66422">
        <ele>806.94366</ele>
        <time>2011-10-02T12:10:20Z</time>
      </trkpt>
      <trkpt lat="45.98078" lon="3.66409">
        <ele>807.8213</ele>
        <time>2011-10-02T12:10:35Z</time>
      </trkpt>
      <trkpt lat="45.9806" lon="3.664">
        <ele>808.9231</ele>
        <time>2011-10-02T12:10:51Z</time>
      </trkpt>
      <trkpt lat="45.98043" lon="3.66392">
        <ele>809.8215</ele>
        <time>2011-10-02T12:11:08Z</time>
      </trkpt>
      <trkpt lat="45.98025" lon="3.66385">
        <ele>810.2482</ele>
        <time>2011-10-02T12:11:24Z</time>
      </trkpt>
      <trkpt lat="45.98007" lon="3.66379">
        <ele>811.23663</ele>
        <time>2011-10-02T12:11:38Z</time>
      </trkpt>
      <trkpt lat="45.97989" lon="3.66373">
        <ele>812.5645</ele>
        <time>2011-10-02T12:11:52Z</time>
      </trkpt>
      <trkpt lat="45.9797" lon="3.66366">
        <ele>813.85614</ele>
        <time>2011-10-02T12:12:05Z</time>
      </trkpt>
      <trkpt lat="45.97952" lon="3.66362">
        <ele>814.8965</ele>
        <time>2011-10-02T12:12:18Z</time>
      </trkpt>
      <trkpt lat="45.97935" lon="3.66351">
        <ele>815</ele>
        <time>2011-10-02T12:13:12Z</time>
      </trkpt>
      <trkpt lat="45.97924" lon="3.6633">
        <ele>814.0075</ele>
        <time>2011-10-02T12:14:01Z</time>
      </trkpt>
      <trkpt lat="45.97914" lon="3.66308">
        <ele>808.2116</ele>
        <time>2011-10-02T12:15:26Z</time>
      </trkpt>
      <trkpt lat="45.97906" lon="3.66285">
        <ele>804.35236</ele>
        <time>2011-10-02T12:15:41Z</time>
      </trkpt>
      <trkpt lat="45.97896" lon="3.66261">
        <ele>801.5833</ele>
        <time>2011-10-02T12:16:03Z</time>
      </trkpt>
      <trkpt lat="45.97892" lon="3.66235">
        <ele>801.0014</ele>
        <time>2011-10-02T12:16:24Z</time>
      </trkpt>
      <trkpt lat="45.97882" lon="3.66212">
        <ele>800.2373</ele>
        <time>2011-10-02T12:16:38Z</time>
      </trkpt>
      <trkpt lat="45.97893" lon="3.6619">
        <ele>800.00134</ele>
        <time>2011-10-02T12:16:56Z</time>
      </trkpt>
      <trkpt lat="45.97908" lon="3.66175">
        <ele>800</ele>
        <time>2011-10-02T12:17:14Z</time>
      </trkpt>
      <trkpt lat="45.9792" lon="3.66154">
        <ele>796.48425</ele>
        <time>2011-10-02T12:17:41Z</time>
      </trkpt>
      <trkpt lat="45.97931" lon="3.66132">
        <ele>795.07996</ele>
        <time>2011-10-02T12:17:57Z</time>
      </trkpt>
      <trkpt lat="45.97945" lon="3.66115">
        <ele>794.0239</ele>
        <time>2011-10-02T12:18:19Z</time>
      </trkpt>
      <trkpt lat="45.97957" lon="3.66094">
        <ele>792.3298</ele>
        <time>2011-10-02T12:18:49Z</time>
      </trkpt>
      <trkpt lat="45.97969" lon="3.66072">
        <ele>791.0331</ele>
        <time>2011-10-02T12:19:08Z</time>
      </trkpt>
      <trkpt lat="45.97974" lon="3.66046">
        <ele>790.0137</ele>
        <time>2011-10-02T12:19:24Z</time>
      </trkpt>
      <trkpt lat="45.97974" lon="3.66019">
        <ele>789.0043</ele>
        <time>2011-10-02T12:19:46Z</time>
      </trkpt>
      <trkpt lat="45.9797" lon="3.65993">
        <ele>788.0042</ele>
        <time>2011-10-02T12:20:06Z</time>
      </trkpt>
      <trkpt lat="45.97964" lon="3.65967">
        <ele>788</ele>
        <time>2011-10-02T12:20:25Z</time>
      </trkpt>
      <trkpt lat="45.9796" lon="3.65941">
        <ele>787.178</ele>
        <time>2011-10-02T12:20:43Z</time>
      </trkpt>
      <trkpt lat="45.97959" lon="3.65913">
        <ele>785.58105</ele>
        <time>2011-10-02T12:21:02Z</time>
      </trkpt>
      <trkpt lat="45.97955" lon="3.65888">
        <ele>784.9925</ele>
        <time>2011-10-02T12:21:52Z</time>
      </trkpt>
      <trkpt lat="45.97951" lon="3.65862">
        <ele>784.2373</ele>
        <time>2011-10-02T12:22:15Z</time>
      </trkpt>
      <trkpt lat="45.97946" lon="3.65836">
        <ele>784.001</ele>
        <time>2011-10-02T12:22:34Z</time>
      </trkpt>
      <trkpt lat="45.97942" lon="3.6581">
        <ele>783.02374</ele>
        <time>2011-10-02T12:22:52Z</time>
      </trkpt>
      <trkpt lat="45.97944" lon="3.65782">
        <ele>782.00757</ele>
        <time>2011-10-02T12:23:13Z</time>
      </trkpt>
      <trkpt lat="45.9795" lon="3.65757">
        <ele>782.00006</ele>
        <time>2011-10-02T12:23:30Z</time>
      </trkpt>
      <trkpt lat="45.97953" lon="3.65731">
        <ele>781.4219</ele>
        <time>2011-10-02T12:23:45Z</time>
      </trkpt>
      <trkpt lat="45.97956" lon="3.65705">
        <ele>781.2324</ele>
        <time>2011-10-02T12:24:07Z</time>
      </trkpt>
      <trkpt lat="45.97967" lon="3.65684">
        <ele>781.0018</ele>
        <time>2011-10-02T12:24:24Z</time>
      </trkpt>
      <trkpt lat="45.97977" lon="3.6566">
        <ele>781.98663</ele>
        <time>2011-10-02T12:24:41Z</time>
      </trkpt>
      <trkpt lat="45.97979" lon="3.65634">
        <ele>781.9999</ele>
        <time>2011-10-02T12:24:58Z</time>
      </trkpt>
      <trkpt lat="45.97979" lon="3.65607">
        <ele>781.0018</ele>
        <time>2011-10-02T12:25:36Z</time>
      </trkpt>
      <trkpt lat="45.97978" lon="3.65579">
        <ele>780.0042</ele>
        <time>2011-10-02T12:26:02Z</time>
      </trkpt>
      <trkpt lat="45.97986" lon="3.65555">
        <ele>779.0024</ele>
        <time>2011-10-02T12:26:27Z</time>
      </trkpt>
      <trkpt lat="45.98003" lon="3.65542">
        <ele>775.47266</ele>
        <time>2011-10-02T12:26:51Z</time>
      </trkpt>
      <trkpt lat="45.98018" lon="3.65527">
        <ele>775.00037</ele>
        <time>2011-10-02T12:27:16Z</time>
      </trkpt>
      <trkpt lat="45.98029" lon="3.65506">
        <ele>775</ele>
        <time>2011-10-02T12:27:32Z</time>
      </trkpt>
      <trkpt lat="45.98036" lon="3.6548">
        <ele>775</ele>
        <time>2011-10-02T12:27:49Z</time>
      </trkpt>
      <trkpt lat="45.98042" lon="3.65454">
        <ele>774.178</ele>
        <time>2011-10-02T12:28:11Z</time>
      </trkpt>
      <trkpt lat="45.98044" lon="3.65428">
        <ele>773.10187</ele>
        <time>2011-10-02T12:28:27Z</time>
      </trkpt>
      <trkpt lat="45.98041" lon="3.65403">
        <ele>773.00006</ele>
        <time>2011-10-02T12:28:52Z</time>
      </trkpt>
      <trkpt lat="45.98037" lon="3.65377">
        <ele>773</ele>
        <time>2011-10-02T12:29:08Z</time>
      </trkpt>
      <trkpt lat="45.98036" lon="3.65349">
        <ele>775.0483</ele>
        <time>2011-10-02T12:29:26Z</time>
      </trkpt>
      <trkpt lat="45.98028" lon="3.65323">
        <ele>777.8825</ele>
        <time>2011-10-02T12:29:45Z</time>
      </trkpt>
      <trkpt lat="45.9802" lon="3.653">
        <ele>779.65894</ele>
        <time>2011-10-02T12:30:02Z</time>
      </trkpt>
      <trkpt lat="45.98012" lon="3.65276">
        <ele>780.6728</ele>
        <time>2011-10-02T12:30:14Z</time>
      </trkpt>
      <trkpt lat="45.98014" lon="3.65248">
        <ele>782.74445</ele>
        <time>2011-10-02T12:30:37Z</time>
      </trkpt>
      <trkpt lat="45.98025" lon="3.65225">
        <ele>788.3638</ele>
        <time>2011-10-02T12:31:09Z</time>
      </trkpt>
      <trkpt lat="45.9803" lon="3.65197">
        <ele>788.98486</ele>
        <time>2011-10-02T12:31:22Z</time>
      </trkpt>
      <trkpt lat="45.98035" lon="3.65171">
        <ele>787.20917</ele>
        <time>2011-10-02T12:31:34Z</time>
      </trkpt>
      <trkpt lat="45.98038" lon="3.65145">
        <ele>786.0366</ele>
        <time>2011-10-02T12:31:47Z</time>
      </trkpt>
      <trkpt lat="45.9804" lon="3.65119">
        <ele>786.86804</ele>
        <time>2011-10-02T12:31:58Z</time>
      </trkpt>
      <trkpt lat="45.98042" lon="3.65094">
        <ele>787.76135</ele>
        <time>2011-10-02T12:32:14Z</time>
      </trkpt>
      <trkpt lat="45.98041" lon="3.65066">
        <ele>787.9998</ele>
        <time>2011-10-02T12:32:39Z</time>
      </trkpt>
      <trkpt lat="45.98041" lon="3.65038">
        <ele>787.0032</ele>
        <time>2011-10-02T12:33:11Z</time>
      </trkpt>
      <trkpt lat="45.98056" lon="3.65023">
        <ele>786</ele>
        <time>2011-10-02T12:34:47Z</time>
      </trkpt>
      <trkpt lat="45.98038" lon="3.65025">
        <ele>786.9944</ele>
        <time>2011-10-02T12:37:31Z</time>
      </trkpt>
      <trkpt lat="45.98027" lon="3.65004">
        <ele>786.1335</ele>
        <time>2011-10-02T12:37:50Z</time>
      </trkpt>
      <trkpt lat="45.98025" lon="3.64978">
        <ele>786.0018</ele>
        <time>2011-10-02T12:38:05Z</time>
      </trkpt>
      <trkpt lat="45.98021" lon="3.64952">
        <ele>786</ele>
        <time>2011-10-02T12:38:20Z</time>
      </trkpt>
      <trkpt lat="45.98014" lon="3.64926">
        <ele>785.4219</ele>
        <time>2011-10-02T12:38:35Z</time>
      </trkpt>
      <trkpt lat="45.98009" lon="3.64901">
        <ele>782.4478</ele>
        <time>2011-10-02T12:38:49Z</time>
      </trkpt>
      <trkpt lat="45.98005" lon="3.64875">
        <ele>779.39056</ele>
        <time>2011-10-02T12:39:05Z</time>
      </trkpt>
      <trkpt lat="45.98" lon="3.64849">
        <ele>776.193</ele>
        <time>2011-10-02T12:39:21Z</time>
      </trkpt>
      <trkpt lat="45.98001" lon="3.64821">
        <ele>773.0599</ele>
        <time>2011-10-02T12:39:49Z</time>
      </trkpt>
      <trkpt lat="45.98004" lon="3.64793">
        <ele>773.0001</ele>
        <time>2011-10-02T12:40:11Z</time>
      </trkpt>
      <trkpt lat="45.98006" lon="3.64768">
        <ele>772.3164</ele>
        <time>2011-10-02T12:40:25Z</time>
      </trkpt>
      <trkpt lat="45.98008" lon="3.64742">
        <ele>771.1339</ele>
        <time>2011-10-02T12:40:48Z</time>
      </trkpt>
      <trkpt lat="45.98006" lon="3.64716">
        <ele>770.30664</ele>
        <time>2011-10-02T12:41:09Z</time>
      </trkpt>
      <trkpt lat="45.98003" lon="3.6469">
        <ele>770.23676</ele>
        <time>2011-10-02T12:41:34Z</time>
      </trkpt>
      <trkpt lat="45.97992" lon="3.64667">
        <ele>769.1003</ele>
        <time>2011-10-02T12:41:59Z</time>
      </trkpt>
      <trkpt lat="45.9799" lon="3.64641">
        <ele>767.04675</ele>
        <time>2011-10-02T12:42:19Z</time>
      </trkpt>
      <trkpt lat="45.97986" lon="3.64615">
        <ele>767.0001</ele>
        <time>2011-10-02T12:42:39Z</time>
      </trkpt>
      <trkpt lat="45.97983" lon="3.64589">
        <ele>762.028</ele>
        <time>2011-10-02T12:43:23Z</time>
      </trkpt>
      <trkpt lat="45.97975" lon="3.64566">
        <ele>760.25085</ele>
        <time>2011-10-02T12:43:40Z</time>
      </trkpt>
      <trkpt lat="45.97963" lon="3.64544">
        <ele>759.0057</ele>
        <time>2011-10-02T12:44:13Z</time>
      </trkpt>
      <trkpt lat="45.97955" lon="3.64521">
        <ele>759.8999</ele>
        <time>2011-10-02T12:44:31Z</time>
      </trkpt>
      <trkpt lat="45.97952" lon="3.64495">
        <ele>759.9982</ele>
        <time>2011-10-02T12:44:45Z</time>
      </trkpt>
      <trkpt lat="45.97951" lon="3.64467">
        <ele>760.9822</ele>
        <time>2011-10-02T12:45:03Z</time>
      </trkpt>
      <trkpt lat="45.97953" lon="3.64441">
        <ele>761.97614</ele>
        <time>2011-10-02T12:45:20Z</time>
      </trkpt>
      <trkpt lat="45.97954" lon="3.64413">
        <ele>762.9576</ele>
        <time>2011-10-02T12:45:37Z</time>
      </trkpt>
      <trkpt lat="45.9795" lon="3.64386">
        <ele>762.0741</ele>
        <time>2011-10-02T12:45:50Z</time>
      </trkpt>
      <trkpt lat="45.97947" lon="3.6436">
        <ele>762.0018</ele>
        <time>2011-10-02T12:46:03Z</time>
      </trkpt>
      <trkpt lat="45.97944" lon="3.64334">
        <ele>764.1399</ele>
        <time>2011-10-02T12:46:21Z</time>
      </trkpt>
      <trkpt lat="45.97938" lon="3.64308">
        <ele>764.9847</ele>
        <time>2011-10-02T12:46:35Z</time>
      </trkpt>
      <trkpt lat="45.9794" lon="3.64283">
        <ele>765.6834</ele>
        <time>2011-10-02T12:46:50Z</time>
      </trkpt>
      <trkpt lat="45.97941" lon="3.64255">
        <ele>765.9976</ele>
        <time>2011-10-02T12:47:07Z</time>
      </trkpt>
      <trkpt lat="45.97936" lon="3.64229">
        <ele>765.99994</ele>
        <time>2011-10-02T12:47:21Z</time>
      </trkpt>
      <trkpt lat="45.97931" lon="3.64203">
        <ele>766.9249</ele>
        <time>2011-10-02T12:47:35Z</time>
      </trkpt>
      <trkpt lat="45.97933" lon="3.64177">
        <ele>768.8079</ele>
        <time>2011-10-02T12:47:51Z</time>
      </trkpt>
      <trkpt lat="45.97951" lon="3.64171">
        <ele>770.81116</ele>
        <time>2011-10-02T12:48:10Z</time>
      </trkpt>
      <trkpt lat="45.97969" lon="3.64167">
        <ele>772.23175</ele>
        <time>2011-10-02T12:48:31Z</time>
      </trkpt>
      <trkpt lat="45.97988" lon="3.6416">
        <ele>772.9863</ele>
        <time>2011-10-02T12:48:45Z</time>
      </trkpt>
      <trkpt lat="45.98005" lon="3.6415">
        <ele>772.9997</ele>
        <time>2011-10-02T12:48:58Z</time>
      </trkpt>
      <trkpt lat="45.98021" lon="3.64137">
        <ele>773</ele>
        <time>2011-10-02T12:49:14Z</time>
      </trkpt>
      <trkpt lat="45.98037" lon="3.64124">
        <ele>773.8999</ele>
        <time>2011-10-02T12:49:30Z</time>
      </trkpt>
      <trkpt lat="45.98043" lon="3.64098">
        <ele>775.8024</ele>
        <time>2011-10-02T12:49:44Z</time>
      </trkpt>
      <trkpt lat="45.98048" lon="3.64072">
        <ele>779.0967</ele>
        <time>2011-10-02T12:49:57Z</time>
      </trkpt>
      <trkpt lat="45.9805" lon="3.64047">
        <ele>782.5357</ele>
        <time>2011-10-02T12:50:11Z</time>
      </trkpt>
      <trkpt lat="45.98052" lon="3.64017">
        <ele>785.3113</ele>
        <time>2011-10-02T12:50:25Z</time>
      </trkpt>
      <trkpt lat="45.98056" lon="3.63991">
        <ele>787.5867</ele>
        <time>2011-10-02T12:50:37Z</time>
      </trkpt>
      <trkpt lat="45.98066" lon="3.63967">
        <ele>788.9382</ele>
        <time>2011-10-02T12:50:52Z</time>
      </trkpt>
      <trkpt lat="45.98081" lon="3.63952">
        <ele>789.99414</ele>
        <time>2011-10-02T12:51:12Z</time>
      </trkpt>
      <trkpt lat="45.98098" lon="3.63939">
        <ele>790.68353</ele>
        <time>2011-10-02T12:51:28Z</time>
      </trkpt>
      <trkpt lat="45.98116" lon="3.63931">
        <ele>790.99</ele>
        <time>2011-10-02T12:51:40Z</time>
      </trkpt>
      <trkpt lat="45.98135" lon="3.63922">
        <ele>790.9997</ele>
        <time>2011-10-02T12:51:52Z</time>
      </trkpt>
      <trkpt lat="45.98152" lon="3.63914">
        <ele>791</ele>
        <time>2011-10-02T12:52:05Z</time>
      </trkpt>
      <trkpt lat="45.9817" lon="3.63905">
        <ele>791</ele>
        <time>2011-10-02T12:52:19Z</time>
      </trkpt>
      <trkpt lat="45.98189" lon="3.63901">
        <ele>791</ele>
        <time>2011-10-02T12:52:32Z</time>
      </trkpt>
      <trkpt lat="45.98207" lon="3.63903">
        <ele>791</ele>
        <time>2011-10-02T12:52:41Z</time>
      </trkpt>
      <trkpt lat="45.98227" lon="3.63905">
        <ele>791</ele>
        <time>2011-10-02T12:52:53Z</time>
      </trkpt>
      <trkpt lat="45.98245" lon="3.63905">
        <ele>791</ele>
        <time>2011-10-02T12:53:05Z</time>
      </trkpt>
      <trkpt lat="45.98263" lon="3.63909">
        <ele>791</ele>
        <time>2011-10-02T12:53:18Z</time>
      </trkpt>
      <trkpt lat="45.98282" lon="3.63909">
        <ele>791</ele>
        <time>2011-10-02T12:53:32Z</time>
      </trkpt>
      <trkpt lat="45.983" lon="3.63911">
        <ele>791</ele>
        <time>2011-10-02T12:53:44Z</time>
      </trkpt>
      <trkpt lat="45.98318" lon="3.63914">
        <ele>791</ele>
        <time>2011-10-02T12:53:57Z</time>
      </trkpt>
      <trkpt lat="45.98336" lon="3.63914">
        <ele>791</ele>
        <time>2011-10-02T12:54:10Z</time>
      </trkpt>
    </trkseg>
  </trk>
</gpx>